UAE751 OMDB-GMMN
Flight info
| Callsign | UAE751 |
|---|---|
| Flight time | N/A |
| Altitude | 35000 |
| Route | ANVIX L223 TARDI N629 BOTAM Y855 LAKLU/N0502F340 Q204 NALKI G652 TOKRA DCT ALROK/N0503F360 DCT BOSOB DCT ITRUX Y511 PMA Z712 WEJ L677 CVO L617 MENKU/N0491F380 L617 NABSI M872 METRU DCT ARLOS DCT OMENI UL874 DIMAO UZ888 YEMZO/N0491F400 UZ888 ORSUP UA411 FES UR975 SADIC |
| Aircraft | A388/J-SADE2E3FGHIJ3J4J5M1RWXY/LB1D1 |
Departure
| Time | N/A |
|---|---|
| Airport | Dubai International Airport (OMDB) |
Arrival
| Time | 2026-05-07 00:38 |
|---|---|
| Airport | Mohammed V International Airport (GMMN) |
| Time | Latitude | Longitude | Altitude | Speed | Heading |
|---|---|---|---|---|---|
| 2026-05-06 15:49 | 24.59228 | 56.13287 | 19965 ft | 408 kts | 137° |
| 2026-05-06 15:49 | 24.57156 | 56.15448 | 20300 ft | 411 kts | 134° |
| 2026-05-06 15:50 | 24.55265 | 56.17808 | 20617 ft | 413 kts | 130° |
| 2026-05-06 15:50 | 24.53393 | 56.20215 | 20948 ft | 415 kts | 130° |
| 2026-05-06 15:50 | 24.51520 | 56.22608 | 21267 ft | 418 kts | 131° |
| 2026-05-06 15:50 | 24.49604 | 56.25047 | 21586 ft | 421 kts | 131° |
| 2026-05-06 15:51 | 24.47692 | 56.27480 | 21871 ft | 423 kts | 131° |
| 2026-05-06 15:51 | 24.45753 | 56.29942 | 22147 ft | 426 kts | 131° |
| 2026-05-06 15:51 | 24.43822 | 56.32396 | 22448 ft | 428 kts | 131° |
| 2026-05-06 15:51 | 24.41872 | 56.34873 | 22736 ft | 431 kts | 131° |
| 2026-05-06 15:52 | 24.39896 | 56.37384 | 23046 ft | 433 kts | 131° |
| 2026-05-06 15:52 | 24.37922 | 56.39891 | 23331 ft | 436 kts | 131° |
| 2026-05-06 15:52 | 24.35938 | 56.42409 | 23573 ft | 438 kts | 131° |
| 2026-05-06 15:52 | 24.33938 | 56.44946 | 23832 ft | 440 kts | 131° |
| 2026-05-06 15:53 | 24.31933 | 56.47487 | 24076 ft | 442 kts | 131° |
| 2026-05-06 15:53 | 24.29915 | 56.50064 | 24317 ft | 445 kts | 129° |
| 2026-05-06 15:53 | 24.28072 | 56.52800 | 24551 ft | 447 kts | 126° |
| 2026-05-06 15:53 | 24.26246 | 56.55573 | 24763 ft | 450 kts | 127° |
| 2026-05-06 15:54 | 24.24413 | 56.58342 | 25038 ft | 451 kts | 127° |
| 2026-05-06 15:54 | 24.22562 | 56.61130 | 25285 ft | 453 kts | 127° |
| 2026-05-06 15:54 | 24.20727 | 56.63891 | 25547 ft | 454 kts | 127° |
| 2026-05-06 15:54 | 24.18849 | 56.66714 | 25809 ft | 456 kts | 127° |
| 2026-05-06 15:55 | 24.16968 | 56.69540 | 26069 ft | 458 kts | 127° |
| 2026-05-06 15:55 | 24.15083 | 56.72372 | 26329 ft | 461 kts | 127° |
| 2026-05-06 15:55 | 24.13197 | 56.75205 | 26604 ft | 463 kts | 127° |
| 2026-05-06 15:55 | 24.11306 | 56.78042 | 26878 ft | 465 kts | 127° |
| 2026-05-06 15:56 | 24.09384 | 56.80926 | 27149 ft | 467 kts | 127° |
| 2026-05-06 15:56 | 24.07473 | 56.83790 | 27419 ft | 469 kts | 128° |
| 2026-05-06 15:56 | 24.05358 | 56.86530 | 27659 ft | 469 kts | 139° |
| 2026-05-06 15:56 | 24.02814 | 56.88719 | 27961 ft | 468 kts | 150° |
| 2026-05-06 15:57 | 23.99894 | 56.90300 | 28262 ft | 465 kts | 163° |
| 2026-05-06 15:57 | 23.96782 | 56.91251 | 28549 ft | 464 kts | 171° |
| 2026-05-06 15:57 | 23.93607 | 56.91968 | 28860 ft | 466 kts | 172° |
| 2026-05-06 15:57 | 23.90479 | 56.92672 | 29175 ft | 468 kts | 171° |
| 2026-05-06 15:58 | 23.87243 | 56.93455 | 29490 ft | 471 kts | 170° |
| 2026-05-06 15:58 | 23.84043 | 56.94276 | 29830 ft | 474 kts | 169° |
| 2026-05-06 15:58 | 23.80870 | 56.95116 | 30123 ft | 476 kts | 169° |
| 2026-05-06 15:58 | 23.77646 | 56.95981 | 30424 ft | 478 kts | 169° |
| 2026-05-06 15:59 | 23.74365 | 56.96864 | 30732 ft | 481 kts | 169° |
| 2026-05-06 15:59 | 23.71152 | 56.97728 | 31025 ft | 483 kts | 169° |
| 2026-05-06 15:59 | 23.67887 | 56.98604 | 31338 ft | 485 kts | 169° |
| 2026-05-06 15:59 | 23.64599 | 56.99486 | 31653 ft | 487 kts | 169° |
| 2026-05-06 16:00 | 23.61307 | 57.00368 | 31908 ft | 491 kts | 169° |
| 2026-05-06 16:00 | 23.57977 | 57.01259 | 32175 ft | 492 kts | 169° |
| 2026-05-06 16:00 | 23.54646 | 57.02150 | 32453 ft | 494 kts | 169° |
| 2026-05-06 16:00 | 23.51292 | 57.03046 | 32738 ft | 496 kts | 169° |
| 2026-05-06 16:01 | 23.47932 | 57.03944 | 33005 ft | 499 kts | 169° |
| 2026-05-06 16:01 | 23.44550 | 57.04846 | 33283 ft | 501 kts | 169° |
| 2026-05-06 16:01 | 23.41141 | 57.05658 | 33569 ft | 501 kts | 175° |
| 2026-05-06 16:01 | 23.37677 | 57.05985 | 33845 ft | 499 kts | 183° |
| 2026-05-06 16:02 | 23.30831 | 57.05123 | 33926 ft | 493 kts | 196° |
| 2026-05-06 16:02 | 23.24129 | 57.03506 | 33913 ft | 494 kts | 195° |
| 2026-05-06 16:03 | 23.17418 | 57.01927 | 33921 ft | 494 kts | 195° |
| 2026-05-06 16:03 | 23.10716 | 57.00353 | 33915 ft | 494 kts | 195° |
| 2026-05-06 16:04 | 23.03989 | 56.98773 | 33914 ft | 494 kts | 195° |
| 2026-05-06 16:04 | 22.97249 | 56.97191 | 33901 ft | 494 kts | 195° |
| 2026-05-06 16:05 | 22.90533 | 56.95593 | 33896 ft | 493 kts | 199° |
| 2026-05-06 16:05 | 22.84389 | 56.92494 | 33886 ft | 484 kts | 218° |
| 2026-05-06 16:06 | 22.79641 | 56.87434 | 33880 ft | 477 kts | 237° |
| 2026-05-06 16:06 | 22.76428 | 56.81187 | 33871 ft | 475 kts | 244° |
| 2026-05-06 16:07 | 22.73405 | 56.74891 | 33861 ft | 475 kts | 244° |
| 2026-05-06 16:07 | 22.70344 | 56.68546 | 33854 ft | 475 kts | 244° |
| 2026-05-06 16:08 | 22.67291 | 56.62216 | 33846 ft | 475 kts | 244° |
| 2026-05-06 16:08 | 22.64231 | 56.55875 | 33842 ft | 475 kts | 244° |
| 2026-05-06 16:09 | 22.61176 | 56.49554 | 33839 ft | 475 kts | 244° |
| 2026-05-06 16:09 | 22.58106 | 56.43209 | 33832 ft | 475 kts | 244° |
| 2026-05-06 16:10 | 22.55040 | 56.36881 | 33831 ft | 475 kts | 244° |
| 2026-05-06 16:10 | 22.51976 | 56.30556 | 33825 ft | 475 kts | 244° |
| 2026-05-06 16:11 | 22.48909 | 56.24229 | 33823 ft | 475 kts | 244° |
| 2026-05-06 16:11 | 22.45840 | 56.17907 | 33818 ft | 475 kts | 244° |
| 2026-05-06 16:12 | 22.42769 | 56.11590 | 33815 ft | 475 kts | 244° |
| 2026-05-06 16:12 | 22.39716 | 56.05316 | 33812 ft | 475 kts | 244° |
| 2026-05-06 16:13 | 22.36638 | 55.99005 | 33809 ft | 475 kts | 244° |
| 2026-05-06 16:13 | 22.33537 | 55.92691 | 33803 ft | 475 kts | 244° |
| 2026-05-06 16:14 | 22.30438 | 55.86390 | 33801 ft | 475 kts | 244° |
| 2026-05-06 16:14 | 22.27355 | 55.80125 | 33799 ft | 467 kts | 244° |
| 2026-05-06 16:15 | 22.24274 | 55.73863 | 33795 ft | 475 kts | 244° |
| 2026-05-06 16:15 | 22.21184 | 55.67565 | 33795 ft | 475 kts | 244° |
| 2026-05-06 16:16 | 22.18118 | 55.61248 | 33789 ft | 474 kts | 246° |
| 2026-05-06 16:16 | 22.15924 | 55.54567 | 33786 ft | 472 kts | 257° |
| 2026-05-06 16:17 | 22.14965 | 55.47570 | 33790 ft | 471 kts | 266° |
| 2026-05-06 16:17 | 22.14408 | 55.40528 | 33782 ft | 471 kts | 265° |
| 2026-05-06 16:18 | 22.13824 | 55.33481 | 33782 ft | 471 kts | 265° |
| 2026-05-06 16:18 | 22.13241 | 55.26451 | 33786 ft | 471 kts | 265° |
| 2026-05-06 16:19 | 22.12656 | 55.19406 | 33783 ft | 471 kts | 265° |
| 2026-05-06 16:19 | 22.12076 | 55.12464 | 33776 ft | 471 kts | 265° |
| 2026-05-06 16:20 | 22.11485 | 55.05427 | 33780 ft | 471 kts | 265° |
| 2026-05-06 16:20 | 22.10894 | 54.98429 | 33780 ft | 471 kts | 265° |
| 2026-05-06 16:21 | 22.10297 | 54.91387 | 33775 ft | 471 kts | 265° |
| 2026-05-06 16:21 | 22.09697 | 54.84351 | 33775 ft | 471 kts | 265° |
| 2026-05-06 16:22 | 22.09094 | 54.77316 | 33777 ft | 472 kts | 265° |
| 2026-05-06 16:22 | 22.08483 | 54.70219 | 33777 ft | 480 kts | 265° |
| 2026-05-06 16:23 | 22.07862 | 54.63047 | 33773 ft | 480 kts | 265° |
| 2026-05-06 16:23 | 22.07239 | 54.55888 | 33772 ft | 480 kts | 265° |
| 2026-05-06 16:24 | 22.06611 | 54.48716 | 33772 ft | 480 kts | 265° |
| 2026-05-06 16:24 | 22.05982 | 54.41557 | 33772 ft | 480 kts | 264° |
| 2026-05-06 16:25 | 22.05353 | 54.34437 | 33772 ft | 480 kts | 264° |
| 2026-05-06 16:25 | 22.04718 | 54.27278 | 33770 ft | 480 kts | 264° |
| 2026-05-06 16:26 | 22.04074 | 54.20068 | 33767 ft | 480 kts | 264° |
| 2026-05-06 16:26 | 22.03437 | 54.12961 | 33769 ft | 480 kts | 264° |
| 2026-05-06 16:27 | 22.02791 | 54.05802 | 33767 ft | 480 kts | 264° |
| 2026-05-06 16:27 | 22.02143 | 53.98639 | 33768 ft | 480 kts | 264° |
| 2026-05-06 16:28 | 22.01491 | 53.91477 | 33762 ft | 480 kts | 264° |
| 2026-05-06 16:28 | 22.00837 | 53.84321 | 33760 ft | 480 kts | 264° |
| 2026-05-06 16:29 | 22.00179 | 53.77157 | 33763 ft | 480 kts | 264° |
| 2026-05-06 16:29 | 21.99518 | 53.69999 | 33764 ft | 480 kts | 264° |
| 2026-05-06 16:30 | 21.99073 | 53.65205 | 33761 ft | 481 kts | 264° |
| 2026-05-06 16:30 | 21.98186 | 53.55674 | 33770 ft | 481 kts | 264° |
| 2026-05-06 16:31 | 21.97515 | 53.48512 | 33764 ft | 480 kts | 264° |
| 2026-05-06 16:31 | 21.96955 | 53.42563 | 33758 ft | 480 kts | 264° |
| 2026-05-06 16:32 | 21.96279 | 53.35410 | 33756 ft | 480 kts | 264° |
| 2026-05-06 16:32 | 21.95599 | 53.28242 | 33754 ft | 480 kts | 264° |
| 2026-05-06 16:33 | 21.94917 | 53.21084 | 33756 ft | 480 kts | 264° |
| 2026-05-06 16:34 | 21.93887 | 53.10353 | 33749 ft | 480 kts | 264° |
| 2026-05-06 16:34 | 21.93197 | 53.03203 | 33749 ft | 480 kts | 264° |
| 2026-05-06 16:35 | 21.92502 | 52.96023 | 34150 ft | 482 kts | 263° |
| 2026-05-06 16:35 | 21.92155 | 52.92438 | 34545 ft | 481 kts | 263° |
| 2026-05-06 16:35 | 21.91689 | 52.87649 | 35039 ft | 480 kts | 263° |
| 2026-05-06 16:35 | 21.91457 | 52.85283 | 35284 ft | 480 kts | 263° |
| 2026-05-06 16:36 | 21.91108 | 52.81716 | 35629 ft | 480 kts | 263° |
| 2026-05-06 16:36 | 21.90761 | 52.78145 | 35746 ft | 478 kts | 263° |
| 2026-05-06 16:36 | 21.90444 | 52.74587 | 35751 ft | 477 kts | 266° |
| 2026-05-06 16:37 | 21.90652 | 52.67451 | 35752 ft | 478 kts | 276° |
| 2026-05-06 16:37 | 21.91856 | 52.60452 | 35750 ft | 479 kts | 280° |
| 2026-05-06 16:38 | 21.93149 | 52.53416 | 35749 ft | 479 kts | 279° |
| 2026-05-06 16:38 | 21.94438 | 52.46376 | 35748 ft | 479 kts | 279° |
| 2026-05-06 16:39 | 21.95727 | 52.39346 | 35744 ft | 478 kts | 279° |
| 2026-05-06 16:39 | 21.97011 | 52.32315 | 35746 ft | 478 kts | 279° |
| 2026-05-06 16:40 | 21.98289 | 52.25303 | 35748 ft | 478 kts | 279° |
| 2026-05-06 16:40 | 21.99568 | 52.18266 | 35745 ft | 478 kts | 279° |
| 2026-05-06 16:41 | 22.00841 | 52.11241 | 35751 ft | 478 kts | 279° |
| 2026-05-06 16:41 | 22.02111 | 52.04216 | 35753 ft | 478 kts | 279° |
| 2026-05-06 16:42 | 22.03379 | 51.97188 | 35752 ft | 478 kts | 279° |
| 2026-05-06 16:42 | 22.04644 | 51.90156 | 35757 ft | 478 kts | 279° |
| 2026-05-06 16:43 | 22.05905 | 51.83124 | 35757 ft | 477 kts | 279° |
| 2026-05-06 16:43 | 22.07154 | 51.76146 | 35761 ft | 477 kts | 279° |
| 2026-05-06 16:44 | 22.08417 | 51.69076 | 35760 ft | 477 kts | 279° |
| 2026-05-06 16:44 | 22.09658 | 51.62104 | 35759 ft | 477 kts | 279° |
| 2026-05-06 16:45 | 22.10904 | 51.55085 | 35761 ft | 476 kts | 279° |
| 2026-05-06 16:45 | 22.12146 | 51.48077 | 35759 ft | 476 kts | 279° |
| 2026-05-06 16:46 | 22.13383 | 51.41074 | 35758 ft | 475 kts | 279° |
| 2026-05-06 16:46 | 22.14617 | 51.34071 | 35762 ft | 475 kts | 279° |
| 2026-05-06 16:47 | 22.15841 | 51.27107 | 35763 ft | 475 kts | 279° |
| 2026-05-06 16:47 | 22.17067 | 51.20118 | 35767 ft | 475 kts | 279° |
| 2026-05-06 16:48 | 22.18292 | 51.13110 | 35763 ft | 475 kts | 279° |
| 2026-05-06 16:48 | 22.19514 | 51.06105 | 35766 ft | 475 kts | 278° |
| 2026-05-06 16:49 | 22.20731 | 50.99105 | 35770 ft | 475 kts | 278° |
| 2026-05-06 16:49 | 22.21946 | 50.92105 | 35768 ft | 475 kts | 278° |
| 2026-05-06 16:50 | 22.23157 | 50.85103 | 35769 ft | 474 kts | 278° |
| 2026-05-06 16:50 | 22.24365 | 50.78103 | 35768 ft | 474 kts | 278° |
| 2026-05-06 16:51 | 22.25569 | 50.71106 | 35768 ft | 474 kts | 278° |
| 2026-05-06 16:51 | 22.26770 | 50.64113 | 35771 ft | 474 kts | 278° |
| 2026-05-06 16:52 | 22.27967 | 50.57122 | 35771 ft | 474 kts | 278° |
| 2026-05-06 16:52 | 22.29161 | 50.50125 | 35772 ft | 474 kts | 278° |
| 2026-05-06 16:53 | 22.30344 | 50.43175 | 35771 ft | 474 kts | 278° |
| 2026-05-06 16:53 | 22.31540 | 50.36134 | 35772 ft | 474 kts | 278° |
| 2026-05-06 16:54 | 22.32725 | 50.29137 | 35771 ft | 474 kts | 278° |
| 2026-05-06 16:54 | 22.33900 | 50.22185 | 35775 ft | 474 kts | 278° |
| 2026-05-06 16:55 | 22.35078 | 50.15189 | 35775 ft | 474 kts | 278° |
| 2026-05-06 16:55 | 22.36254 | 50.08189 | 35774 ft | 474 kts | 278° |
| 2026-05-06 16:56 | 22.37427 | 50.01189 | 35778 ft | 474 kts | 278° |
| 2026-05-06 16:56 | 22.38597 | 49.94186 | 35779 ft | 474 kts | 278° |
| 2026-05-06 16:57 | 22.39764 | 49.87181 | 35778 ft | 474 kts | 278° |
| 2026-05-06 16:57 | 22.40927 | 49.80182 | 35778 ft | 473 kts | 278° |
| 2026-05-06 16:58 | 22.42088 | 49.73174 | 35776 ft | 473 kts | 277° |
| 2026-05-06 16:58 | 22.43244 | 49.66178 | 35778 ft | 473 kts | 277° |
| 2026-05-06 16:59 | 22.44391 | 49.59217 | 35780 ft | 473 kts | 277° |
| 2026-05-06 16:59 | 22.45543 | 49.52208 | 35776 ft | 473 kts | 277° |
| 2026-05-06 17:00 | 22.46691 | 49.45204 | 35774 ft | 473 kts | 277° |
| 2026-05-06 17:00 | 22.47837 | 49.38191 | 35776 ft | 474 kts | 277° |
| 2026-05-06 17:01 | 22.48978 | 49.31185 | 35779 ft | 474 kts | 277° |
| 2026-05-06 17:01 | 22.50118 | 49.24169 | 35781 ft | 473 kts | 277° |
| 2026-05-06 17:02 | 22.51254 | 49.17158 | 35785 ft | 473 kts | 277° |
| 2026-05-06 17:02 | 22.52388 | 49.10144 | 35784 ft | 473 kts | 277° |
| 2026-05-06 17:03 | 22.53517 | 49.03132 | 35775 ft | 473 kts | 277° |
| 2026-05-06 17:03 | 22.54643 | 48.96123 | 35773 ft | 473 kts | 277° |
| 2026-05-06 17:04 | 22.55766 | 48.89116 | 35771 ft | 473 kts | 277° |
| 2026-05-06 17:04 | 22.56885 | 48.82111 | 35776 ft | 472 kts | 277° |
| 2026-05-06 17:05 | 22.58000 | 48.75110 | 35772 ft | 472 kts | 277° |
| 2026-05-06 17:05 | 22.59112 | 48.68106 | 35772 ft | 472 kts | 277° |
| 2026-05-06 17:06 | 22.60220 | 48.61115 | 35776 ft | 472 kts | 277° |
| 2026-05-06 17:06 | 22.61326 | 48.54108 | 35778 ft | 472 kts | 277° |
| 2026-05-06 17:07 | 22.62420 | 48.47157 | 35770 ft | 471 kts | 277° |
| 2026-05-06 17:07 | 22.63517 | 48.40169 | 35771 ft | 471 kts | 277° |
| 2026-05-06 17:08 | 22.64612 | 48.33174 | 35770 ft | 471 kts | 277° |
| 2026-05-06 17:08 | 22.65703 | 48.26183 | 35780 ft | 471 kts | 277° |
| 2026-05-06 17:09 | 22.66791 | 48.19199 | 35770 ft | 471 kts | 277° |
| 2026-05-06 17:09 | 22.67877 | 48.12215 | 35770 ft | 470 kts | 277° |
| 2026-05-06 17:10 | 22.68957 | 48.05236 | 35772 ft | 470 kts | 276° |
| 2026-05-06 17:10 | 22.69626 | 47.98213 | 35780 ft | 468 kts | 272° |
| 2026-05-06 17:11 | 22.70221 | 47.91191 | 35779 ft | 468 kts | 272° |
| 2026-05-06 17:11 | 22.70815 | 47.84217 | 35789 ft | 468 kts | 272° |
| 2026-05-06 17:12 | 22.71401 | 47.77195 | 35784 ft | 468 kts | 272° |
| 2026-05-06 17:12 | 22.71981 | 47.70174 | 35790 ft | 468 kts | 272° |
| 2026-05-06 17:13 | 22.72559 | 47.63151 | 35794 ft | 468 kts | 272° |
| 2026-05-06 17:13 | 22.73133 | 47.56127 | 35805 ft | 468 kts | 272° |
| 2026-05-06 17:14 | 22.73705 | 47.49106 | 35803 ft | 467 kts | 272° |
| 2026-05-06 17:14 | 22.74271 | 47.42114 | 35810 ft | 467 kts | 272° |
| 2026-05-06 17:15 | 22.74835 | 47.35096 | 35811 ft | 467 kts | 272° |
| 2026-05-06 17:15 | 22.75395 | 47.28098 | 35823 ft | 466 kts | 272° |
| 2026-05-06 17:16 | 22.75952 | 47.21101 | 35829 ft | 466 kts | 272° |
| 2026-05-06 17:16 | 22.76506 | 47.14122 | 35827 ft | 465 kts | 272° |
| 2026-05-06 17:17 | 22.77062 | 47.07144 | 35837 ft | 464 kts | 272° |
| 2026-05-06 17:17 | 22.77613 | 47.00183 | 35843 ft | 464 kts | 272° |
| 2026-05-06 17:18 | 22.78160 | 46.93221 | 35848 ft | 463 kts | 272° |
| 2026-05-06 17:18 | 22.78703 | 46.86279 | 35858 ft | 463 kts | 272° |
| 2026-05-06 17:19 | 22.79243 | 46.79331 | 35863 ft | 462 kts | 272° |
| 2026-05-06 17:19 | 22.79778 | 46.72399 | 35871 ft | 461 kts | 271° |
| 2026-05-06 17:20 | 22.80311 | 46.65469 | 35876 ft | 461 kts | 271° |
| 2026-05-06 17:20 | 22.80840 | 46.58548 | 35884 ft | 461 kts | 271° |
| 2026-05-06 17:21 | 22.81365 | 46.51632 | 35890 ft | 460 kts | 271° |
| 2026-05-06 17:21 | 22.81887 | 46.44733 | 35898 ft | 460 kts | 271° |
| 2026-05-06 17:22 | 22.82407 | 46.37802 | 35903 ft | 460 kts | 271° |
| 2026-05-06 17:22 | 22.82919 | 46.30890 | 35908 ft | 460 kts | 271° |
| 2026-05-06 17:23 | 22.83425 | 46.24037 | 35907 ft | 459 kts | 271° |
| 2026-05-06 17:23 | 22.83931 | 46.17136 | 35905 ft | 459 kts | 271° |
| 2026-05-06 17:24 | 22.84435 | 46.10238 | 35907 ft | 459 kts | 271° |
| 2026-05-06 17:24 | 22.84934 | 46.03352 | 35904 ft | 458 kts | 271° |
| 2026-05-06 17:25 | 22.85431 | 45.96462 | 35903 ft | 458 kts | 271° |
| 2026-05-06 17:25 | 22.85841 | 45.90743 | 35901 ft | 458 kts | 271° |
| 2026-05-06 17:26 | 22.86332 | 45.83855 | 35895 ft | 457 kts | 271° |
| 2026-05-06 17:26 | 22.86819 | 45.76985 | 35891 ft | 457 kts | 271° |
| 2026-05-06 17:27 | 22.87302 | 45.70116 | 35892 ft | 457 kts | 271° |
| 2026-05-06 17:27 | 22.87783 | 45.63245 | 35890 ft | 457 kts | 271° |
| 2026-05-06 17:28 | 22.88260 | 45.56385 | 35892 ft | 456 kts | 271° |
| 2026-05-06 17:28 | 22.88735 | 45.49525 | 35894 ft | 456 kts | 271° |
| 2026-05-06 17:29 | 22.89206 | 45.42664 | 35896 ft | 456 kts | 271° |
| 2026-05-06 17:29 | 22.89670 | 45.35860 | 35894 ft | 456 kts | 271° |
| 2026-05-06 17:30 | 22.90136 | 45.29002 | 35894 ft | 456 kts | 271° |
| 2026-05-06 17:30 | 22.90597 | 45.22154 | 35898 ft | 455 kts | 271° |
| 2026-05-06 17:31 | 22.91054 | 45.15315 | 35890 ft | 455 kts | 270° |
| 2026-05-06 17:31 | 22.91510 | 45.08477 | 35897 ft | 454 kts | 270° |
| 2026-05-06 17:32 | 22.91961 | 45.01649 | 35898 ft | 454 kts | 270° |
| 2026-05-06 17:32 | 22.92406 | 44.94836 | 35895 ft | 453 kts | 270° |
| 2026-05-06 17:33 | 22.92849 | 44.88033 | 35894 ft | 453 kts | 270° |
| 2026-05-06 17:33 | 22.93291 | 44.81206 | 35886 ft | 452 kts | 270° |
| 2026-05-06 17:34 | 22.93727 | 44.74414 | 35898 ft | 452 kts | 270° |
| 2026-05-06 17:34 | 22.94407 | 44.67618 | 35883 ft | 455 kts | 276° |
| 2026-05-06 17:35 | 22.96073 | 44.60963 | 35888 ft | 460 kts | 284° |
| 2026-05-06 17:35 | 22.98124 | 44.54392 | 35893 ft | 459 kts | 283° |
| 2026-05-06 17:36 | 23.01149 | 44.44551 | 35887 ft | 459 kts | 283° |
| 2026-05-06 17:36 | 23.03172 | 44.37974 | 35889 ft | 458 kts | 283° |
| 2026-05-06 17:37 | 23.05169 | 44.31471 | 35888 ft | 458 kts | 283° |
| 2026-05-06 17:37 | 23.07182 | 44.24909 | 35890 ft | 457 kts | 283° |
| 2026-05-06 17:38 | 23.09189 | 44.18355 | 35889 ft | 457 kts | 283° |
| 2026-05-06 17:38 | 23.11192 | 44.11804 | 35889 ft | 457 kts | 283° |
| 2026-05-06 17:39 | 23.13191 | 44.05249 | 35895 ft | 457 kts | 283° |
| 2026-05-06 17:39 | 23.15189 | 43.98692 | 35900 ft | 457 kts | 283° |
| 2026-05-06 17:40 | 23.17188 | 43.92122 | 35905 ft | 457 kts | 283° |
| 2026-05-06 17:40 | 23.19180 | 43.85560 | 35915 ft | 457 kts | 282° |
| 2026-05-06 17:41 | 23.21168 | 43.79002 | 35920 ft | 456 kts | 282° |
| 2026-05-06 17:41 | 23.23152 | 43.72447 | 35920 ft | 456 kts | 282° |
| 2026-05-06 17:42 | 23.25128 | 43.65908 | 35930 ft | 455 kts | 282° |
| 2026-05-06 17:42 | 23.27099 | 43.59373 | 35935 ft | 454 kts | 282° |
| 2026-05-06 17:43 | 23.29064 | 43.52852 | 35941 ft | 453 kts | 282° |
| 2026-05-06 17:43 | 23.31005 | 43.46396 | 35943 ft | 452 kts | 282° |
| 2026-05-06 17:44 | 23.32966 | 43.39863 | 35947 ft | 451 kts | 282° |
| 2026-05-06 17:44 | 23.34891 | 43.33438 | 35946 ft | 450 kts | 282° |
| 2026-05-06 17:45 | 23.36829 | 43.26960 | 35948 ft | 449 kts | 282° |
| 2026-05-06 17:45 | 23.38759 | 43.20499 | 35955 ft | 449 kts | 282° |
| 2026-05-06 17:46 | 23.40686 | 43.14037 | 35963 ft | 449 kts | 282° |
| 2026-05-06 17:46 | 23.42607 | 43.07571 | 35968 ft | 449 kts | 282° |
| 2026-05-06 17:47 | 23.44522 | 43.01109 | 35977 ft | 449 kts | 281° |
| 2026-05-06 17:47 | 23.46438 | 42.94635 | 35977 ft | 449 kts | 281° |
| 2026-05-06 17:48 | 23.48354 | 42.88152 | 35979 ft | 449 kts | 281° |
| 2026-05-06 17:48 | 23.50262 | 42.81683 | 35981 ft | 449 kts | 281° |
| 2026-05-06 17:49 | 23.52171 | 42.75199 | 35980 ft | 449 kts | 281° |
| 2026-05-06 17:49 | 23.54083 | 42.68710 | 35976 ft | 449 kts | 281° |
| 2026-05-06 17:50 | 23.55993 | 42.62220 | 35976 ft | 450 kts | 281° |
| 2026-05-06 17:50 | 23.57902 | 42.55725 | 35974 ft | 450 kts | 281° |
| 2026-05-06 17:51 | 23.59806 | 42.49232 | 35976 ft | 450 kts | 281° |
| 2026-05-06 17:51 | 23.61694 | 42.42781 | 35973 ft | 450 kts | 281° |
| 2026-05-06 17:52 | 23.63591 | 42.36290 | 35968 ft | 449 kts | 281° |
| 2026-05-06 17:52 | 23.65483 | 42.29808 | 35973 ft | 449 kts | 281° |
| 2026-05-06 17:53 | 23.67368 | 42.23322 | 35965 ft | 448 kts | 281° |
| 2026-05-06 17:53 | 23.69246 | 42.16836 | 35965 ft | 448 kts | 281° |
| 2026-05-06 17:54 | 23.71119 | 42.10362 | 35966 ft | 447 kts | 280° |
| 2026-05-06 17:54 | 23.72988 | 42.03888 | 35962 ft | 447 kts | 280° |
| 2026-05-06 17:55 | 23.74854 | 41.97419 | 35962 ft | 446 kts | 280° |
| 2026-05-06 17:55 | 23.76721 | 41.90959 | 35961 ft | 446 kts | 280° |
| 2026-05-06 17:56 | 23.78585 | 41.84506 | 35958 ft | 445 kts | 280° |
| 2026-05-06 17:56 | 23.80441 | 41.78063 | 35958 ft | 445 kts | 280° |
| 2026-05-06 17:57 | 23.82292 | 41.71626 | 35965 ft | 444 kts | 280° |
| 2026-05-06 17:57 | 23.84138 | 41.65187 | 35962 ft | 444 kts | 280° |
| 2026-05-06 17:58 | 23.85966 | 41.58798 | 35955 ft | 444 kts | 280° |
| 2026-05-06 17:58 | 23.88026 | 41.52431 | 35948 ft | 453 kts | 289° |
| 2026-05-06 17:59 | 23.91183 | 41.46389 | 35950 ft | 457 kts | 291° |
| 2026-05-06 17:59 | 23.94372 | 41.40377 | 35961 ft | 458 kts | 291° |
| 2026-05-06 18:00 | 23.97597 | 41.34358 | 35957 ft | 459 kts | 292° |
| 2026-05-06 18:00 | 24.00825 | 41.28341 | 35960 ft | 459 kts | 292° |
| 2026-05-06 18:01 | 24.04053 | 41.22316 | 35959 ft | 459 kts | 292° |
| 2026-05-06 18:01 | 24.07277 | 41.16288 | 35969 ft | 459 kts | 292° |
| 2026-05-06 18:02 | 24.10498 | 41.10255 | 35961 ft | 459 kts | 292° |
| 2026-05-06 18:02 | 24.13697 | 41.04256 | 35957 ft | 459 kts | 292° |
| 2026-05-06 18:03 | 24.16931 | 40.98182 | 35951 ft | 459 kts | 292° |
| 2026-05-06 18:03 | 24.20118 | 40.92191 | 35945 ft | 458 kts | 292° |
| 2026-05-06 18:04 | 24.23326 | 40.86153 | 35964 ft | 458 kts | 292° |
| 2026-05-06 18:04 | 24.26525 | 40.80122 | 35962 ft | 457 kts | 292° |
| 2026-05-06 18:05 | 24.29719 | 40.74095 | 35959 ft | 457 kts | 292° |
| 2026-05-06 18:05 | 24.32910 | 40.68065 | 35957 ft | 457 kts | 292° |
| 2026-05-06 18:06 | 24.36096 | 40.62037 | 35949 ft | 457 kts | 292° |
| 2026-05-06 18:06 | 24.39279 | 40.56008 | 35950 ft | 457 kts | 292° |
| 2026-05-06 18:07 | 24.42456 | 40.49982 | 35936 ft | 457 kts | 292° |
| 2026-05-06 18:07 | 24.45633 | 40.43947 | 35936 ft | 457 kts | 292° |
| 2026-05-06 18:08 | 24.48809 | 40.37909 | 35943 ft | 457 kts | 292° |
| 2026-05-06 18:08 | 24.51963 | 40.31903 | 35945 ft | 457 kts | 292° |
| 2026-05-06 18:09 | 24.55161 | 40.25807 | 35947 ft | 458 kts | 292° |
| 2026-05-06 18:09 | 24.58315 | 40.19787 | 35949 ft | 458 kts | 292° |
| 2026-05-06 18:10 | 24.61512 | 40.13677 | 35950 ft | 458 kts | 292° |
| 2026-05-06 18:10 | 24.64665 | 40.07645 | 35953 ft | 458 kts | 292° |
| 2026-05-06 18:11 | 24.67324 | 40.02550 | 35953 ft | 459 kts | 292° |
| 2026-05-06 18:11 | 24.71016 | 39.95468 | 35956 ft | 459 kts | 292° |
| 2026-05-06 18:12 | 24.74187 | 39.89377 | 35957 ft | 459 kts | 292° |
| 2026-05-06 18:12 | 24.77357 | 39.83280 | 35958 ft | 459 kts | 292° |
| 2026-05-06 18:13 | 24.80525 | 39.77179 | 35958 ft | 459 kts | 292° |
| 2026-05-06 18:13 | 24.83686 | 39.71082 | 35960 ft | 459 kts | 292° |
| 2026-05-06 18:14 | 24.86848 | 39.64979 | 35954 ft | 458 kts | 293° |
| 2026-05-06 18:14 | 24.90000 | 39.58886 | 35960 ft | 458 kts | 292° |
| 2026-05-06 18:15 | 24.93150 | 39.52788 | 35956 ft | 458 kts | 292° |
| 2026-05-06 18:15 | 24.96295 | 39.46690 | 35957 ft | 458 kts | 292° |
| 2026-05-06 18:16 | 24.99447 | 39.40576 | 35959 ft | 458 kts | 292° |
| 2026-05-06 18:16 | 25.02593 | 39.34462 | 35963 ft | 458 kts | 292° |
| 2026-05-06 18:17 | 25.05734 | 39.28348 | 35965 ft | 458 kts | 292° |
| 2026-05-06 18:17 | 25.08871 | 39.22236 | 35960 ft | 458 kts | 292° |
| 2026-05-06 18:18 | 25.11981 | 39.16167 | 35959 ft | 457 kts | 292° |
| 2026-05-06 18:18 | 25.15108 | 39.10058 | 35952 ft | 456 kts | 292° |
| 2026-05-06 18:19 | 25.18223 | 39.03964 | 35945 ft | 456 kts | 292° |
| 2026-05-06 18:19 | 25.21334 | 38.97871 | 35940 ft | 455 kts | 292° |
| 2026-05-06 18:20 | 25.23917 | 38.92805 | 35932 ft | 455 kts | 292° |
| 2026-05-06 18:20 | 25.27017 | 38.86720 | 35926 ft | 455 kts | 292° |
| 2026-05-06 18:21 | 25.30110 | 38.80639 | 35918 ft | 454 kts | 292° |
| 2026-05-06 18:21 | 25.33204 | 38.74548 | 35917 ft | 454 kts | 292° |
| 2026-05-06 18:22 | 25.36291 | 38.68461 | 35905 ft | 455 kts | 292° |
| 2026-05-06 18:22 | 25.39389 | 38.62348 | 35904 ft | 455 kts | 292° |
| 2026-05-06 18:23 | 25.42477 | 38.56243 | 35902 ft | 456 kts | 292° |
| 2026-05-06 18:23 | 25.45574 | 38.50113 | 35901 ft | 456 kts | 292° |
| 2026-05-06 18:24 | 25.48669 | 38.43982 | 35904 ft | 457 kts | 292° |
| 2026-05-06 18:24 | 25.51767 | 38.37835 | 35901 ft | 457 kts | 292° |
| 2026-05-06 18:25 | 25.54862 | 38.31684 | 35905 ft | 457 kts | 292° |
| 2026-05-06 18:25 | 25.57959 | 38.25523 | 35900 ft | 457 kts | 292° |
| 2026-05-06 18:26 | 25.61045 | 38.19374 | 35900 ft | 457 kts | 292° |
| 2026-05-06 18:26 | 25.64127 | 38.13225 | 35902 ft | 456 kts | 292° |
| 2026-05-06 18:27 | 25.67198 | 38.07089 | 35911 ft | 455 kts | 292° |
| 2026-05-06 18:27 | 25.70263 | 38.00959 | 35907 ft | 454 kts | 292° |
| 2026-05-06 18:28 | 25.73317 | 37.94840 | 35904 ft | 453 kts | 292° |
| 2026-05-06 18:28 | 25.76356 | 37.88746 | 35912 ft | 451 kts | 292° |
| 2026-05-06 18:29 | 25.79388 | 37.82656 | 35907 ft | 451 kts | 292° |
| 2026-05-06 18:29 | 25.82392 | 37.76610 | 35920 ft | 450 kts | 292° |
| 2026-05-06 18:30 | 25.85408 | 37.70535 | 35918 ft | 450 kts | 292° |
| 2026-05-06 18:30 | 25.88430 | 37.64439 | 35926 ft | 450 kts | 292° |
| 2026-05-06 18:31 | 25.91443 | 37.58355 | 35922 ft | 449 kts | 292° |
| 2026-05-06 18:31 | 25.94454 | 37.52267 | 35918 ft | 450 kts | 292° |
| 2026-05-06 18:32 | 25.97466 | 37.46167 | 35926 ft | 450 kts | 292° |
| 2026-05-06 18:32 | 26.00475 | 37.40066 | 35927 ft | 450 kts | 292° |
| 2026-05-06 18:33 | 26.03484 | 37.33954 | 35926 ft | 451 kts | 292° |
| 2026-05-06 18:33 | 26.06496 | 37.27831 | 35925 ft | 451 kts | 292° |
| 2026-05-06 18:34 | 26.09505 | 37.21705 | 35918 ft | 451 kts | 292° |
| 2026-05-06 18:34 | 26.12507 | 37.15584 | 35918 ft | 451 kts | 292° |
| 2026-05-06 18:35 | 26.15495 | 37.09483 | 35905 ft | 452 kts | 292° |
| 2026-05-06 18:35 | 26.18499 | 37.03342 | 35912 ft | 452 kts | 292° |
| 2026-05-06 18:36 | 26.21503 | 36.97191 | 35909 ft | 452 kts | 292° |
| 2026-05-06 18:36 | 26.24508 | 36.91031 | 35906 ft | 452 kts | 292° |
| 2026-05-06 18:37 | 26.27506 | 36.84876 | 35904 ft | 452 kts | 292° |
| 2026-05-06 18:37 | 26.30504 | 36.78713 | 35886 ft | 452 kts | 292° |
| 2026-05-06 18:38 | 26.33498 | 36.72549 | 35887 ft | 452 kts | 292° |
| 2026-05-06 18:38 | 26.36489 | 36.66383 | 35887 ft | 452 kts | 292° |
| 2026-05-06 18:39 | 26.39470 | 36.60226 | 35887 ft | 452 kts | 292° |
| 2026-05-06 18:40 | 26.43960 | 36.50939 | 35893 ft | 453 kts | 292° |
| 2026-05-06 18:40 | 26.46949 | 36.44749 | 35891 ft | 453 kts | 292° |
| 2026-05-06 18:41 | 26.49936 | 36.38551 | 35897 ft | 453 kts | 292° |
| 2026-05-06 18:41 | 26.52901 | 36.32391 | 35904 ft | 454 kts | 292° |
| 2026-05-06 18:42 | 26.55886 | 36.26179 | 35905 ft | 454 kts | 292° |
| 2026-05-06 18:42 | 26.58865 | 36.19973 | 35903 ft | 454 kts | 292° |
| 2026-05-06 18:43 | 26.61847 | 36.13752 | 35899 ft | 453 kts | 292° |
| 2026-05-06 18:43 | 26.64818 | 36.07543 | 35895 ft | 453 kts | 292° |
| 2026-05-06 18:44 | 26.67783 | 36.01339 | 35901 ft | 453 kts | 292° |
| 2026-05-06 18:44 | 26.70756 | 35.95117 | 35899 ft | 453 kts | 292° |
| 2026-05-06 18:45 | 26.73723 | 35.88897 | 35902 ft | 453 kts | 292° |
| 2026-05-06 18:45 | 26.76684 | 35.82683 | 35904 ft | 453 kts | 292° |
| 2026-05-06 18:46 | 26.80230 | 35.76770 | 35907 ft | 463 kts | 303° |
| 2026-05-06 18:46 | 26.84657 | 35.71470 | 35908 ft | 467 kts | 307° |
| 2026-05-06 18:47 | 26.89145 | 35.66213 | 35913 ft | 467 kts | 307° |
| 2026-05-06 18:47 | 26.93632 | 35.60948 | 35917 ft | 467 kts | 307° |
| 2026-05-06 18:48 | 26.98122 | 35.55679 | 35917 ft | 467 kts | 307° |
| 2026-05-06 18:48 | 27.02606 | 35.50411 | 35919 ft | 467 kts | 307° |
| 2026-05-06 18:49 | 27.07091 | 35.45136 | 35919 ft | 467 kts | 307° |
| 2026-05-06 18:49 | 27.11569 | 35.39863 | 35923 ft | 467 kts | 307° |
| 2026-05-06 18:50 | 27.16040 | 35.34591 | 35927 ft | 467 kts | 307° |
| 2026-05-06 18:50 | 27.20518 | 35.29304 | 35926 ft | 466 kts | 307° |
| 2026-05-06 18:51 | 27.24985 | 35.24025 | 35924 ft | 466 kts | 307° |
| 2026-05-06 18:51 | 27.29445 | 35.18746 | 35919 ft | 466 kts | 307° |
| 2026-05-06 18:52 | 27.33909 | 35.13456 | 35906 ft | 466 kts | 307° |
| 2026-05-06 18:52 | 27.38368 | 35.08166 | 35909 ft | 466 kts | 307° |
| 2026-05-06 18:53 | 27.42796 | 35.02905 | 35919 ft | 466 kts | 307° |
| 2026-05-06 18:53 | 27.47250 | 34.97608 | 35921 ft | 466 kts | 307° |
| 2026-05-06 18:54 | 27.51728 | 34.92320 | 35913 ft | 468 kts | 310° |
| 2026-05-06 18:54 | 27.56494 | 34.87308 | 35915 ft | 469 kts | 310° |
| 2026-05-06 18:55 | 27.61264 | 34.82272 | 35912 ft | 469 kts | 310° |
| 2026-05-06 18:55 | 27.66023 | 34.77237 | 35913 ft | 469 kts | 310° |
| 2026-05-06 18:56 | 27.70783 | 34.72194 | 35910 ft | 469 kts | 310° |
| 2026-05-06 18:56 | 27.75536 | 34.67153 | 35914 ft | 469 kts | 310° |
| 2026-05-06 18:57 | 27.80290 | 34.62106 | 35923 ft | 469 kts | 310° |
| 2026-05-06 18:57 | 27.85038 | 34.57057 | 35927 ft | 469 kts | 310° |
| 2026-05-06 18:58 | 27.89776 | 34.52014 | 35936 ft | 468 kts | 310° |
| 2026-05-06 18:58 | 27.94519 | 34.46958 | 35940 ft | 468 kts | 310° |
| 2026-05-06 18:59 | 27.99241 | 34.41886 | 35938 ft | 466 kts | 308° |
| 2026-05-06 18:59 | 28.03413 | 34.36337 | 35937 ft | 461 kts | 303° |
| 2026-05-06 19:00 | 28.07477 | 34.30718 | 35939 ft | 462 kts | 304° |
| 2026-05-06 19:00 | 28.11543 | 34.25103 | 35940 ft | 462 kts | 304° |
| 2026-05-06 19:01 | 28.15611 | 34.19467 | 35950 ft | 462 kts | 304° |
| 2026-05-06 19:01 | 28.19651 | 34.13856 | 35965 ft | 462 kts | 304° |
| 2026-05-06 19:02 | 28.23712 | 34.08213 | 35978 ft | 462 kts | 304° |
| 2026-05-06 19:02 | 28.27766 | 34.02568 | 35975 ft | 461 kts | 304° |
| 2026-05-06 19:03 | 28.31818 | 33.96921 | 35978 ft | 461 kts | 303° |
| 2026-05-06 19:03 | 28.35855 | 33.91287 | 35972 ft | 461 kts | 304° |
| 2026-05-06 19:04 | 28.39899 | 33.85634 | 35974 ft | 461 kts | 304° |
| 2026-05-06 19:04 | 28.43942 | 33.79973 | 35979 ft | 461 kts | 304° |
| 2026-05-06 19:05 | 28.47984 | 33.74308 | 35980 ft | 462 kts | 304° |
| 2026-05-06 19:05 | 28.52027 | 33.68639 | 35987 ft | 461 kts | 304° |
| 2026-05-06 19:06 | 28.56065 | 33.62971 | 35975 ft | 461 kts | 304° |
| 2026-05-06 19:06 | 28.60104 | 33.57305 | 35990 ft | 461 kts | 304° |
| 2026-05-06 19:07 | 28.64143 | 33.51631 | 35994 ft | 461 kts | 304° |
| 2026-05-06 19:07 | 28.68175 | 33.45943 | 35998 ft | 462 kts | 304° |
| 2026-05-06 19:08 | 28.72212 | 33.40241 | 35999 ft | 462 kts | 304° |
| 2026-05-06 19:08 | 28.76221 | 33.34573 | 36011 ft | 462 kts | 304° |
| 2026-05-06 19:09 | 28.80281 | 33.28826 | 36012 ft | 462 kts | 304° |
| 2026-05-06 19:09 | 28.84284 | 33.23150 | 36018 ft | 462 kts | 304° |
| 2026-05-06 19:10 | 28.88314 | 33.17428 | 36015 ft | 462 kts | 304° |
| 2026-05-06 19:10 | 28.92339 | 33.11706 | 36022 ft | 462 kts | 304° |
| 2026-05-06 19:11 | 28.96358 | 33.05984 | 36025 ft | 462 kts | 304° |
| 2026-05-06 19:11 | 28.99729 | 33.01178 | 36026 ft | 462 kts | 304° |
| 2026-05-06 19:12 | 29.03747 | 32.95444 | 36029 ft | 462 kts | 304° |
| 2026-05-06 19:12 | 29.07735 | 32.89743 | 36033 ft | 462 kts | 304° |
| 2026-05-06 19:13 | 29.11747 | 32.84002 | 36030 ft | 462 kts | 304° |
| 2026-05-06 19:13 | 29.15759 | 32.78252 | 36035 ft | 462 kts | 304° |
| 2026-05-06 19:14 | 29.19767 | 32.72499 | 36035 ft | 462 kts | 304° |
| 2026-05-06 19:14 | 29.23774 | 32.66741 | 36038 ft | 463 kts | 304° |
| 2026-05-06 19:15 | 29.27780 | 32.60976 | 36041 ft | 463 kts | 304° |
| 2026-05-06 19:15 | 29.31776 | 32.55185 | 36042 ft | 463 kts | 304° |
| 2026-05-06 19:16 | 29.35742 | 32.49398 | 36044 ft | 463 kts | 304° |
| 2026-05-06 19:16 | 29.39728 | 32.43581 | 36043 ft | 463 kts | 304° |
| 2026-05-06 19:17 | 29.43704 | 32.37772 | 36049 ft | 463 kts | 304° |
| 2026-05-06 19:17 | 29.47677 | 32.31963 | 36050 ft | 463 kts | 304° |
| 2026-05-06 19:18 | 29.51650 | 32.26144 | 36049 ft | 464 kts | 304° |
| 2026-05-06 19:18 | 29.55639 | 32.20293 | 36046 ft | 464 kts | 304° |
| 2026-05-06 19:19 | 29.59611 | 32.14459 | 36054 ft | 464 kts | 304° |
| 2026-05-06 19:19 | 29.63586 | 32.08612 | 36055 ft | 464 kts | 304° |
| 2026-05-06 19:20 | 29.67561 | 32.02756 | 36041 ft | 464 kts | 304° |
| 2026-05-06 19:20 | 29.71533 | 31.96896 | 36042 ft | 465 kts | 304° |
| 2026-05-06 19:21 | 29.75503 | 31.91031 | 36045 ft | 465 kts | 304° |
| 2026-05-06 19:21 | 29.79445 | 31.85187 | 36049 ft | 465 kts | 303° |
| 2026-05-06 19:22 | 29.83285 | 31.79197 | 36050 ft | 464 kts | 303° |
| 2026-05-06 19:22 | 29.87099 | 31.73200 | 36052 ft | 464 kts | 303° |
| 2026-05-06 19:23 | 29.90928 | 31.67210 | 36055 ft | 464 kts | 303° |
| 2026-05-06 19:23 | 29.94772 | 31.61241 | 36056 ft | 465 kts | 303° |
| 2026-05-06 19:24 | 29.98648 | 31.55261 | 36073 ft | 465 kts | 303° |
| 2026-05-06 19:24 | 30.02514 | 31.49278 | 36076 ft | 465 kts | 303° |
| 2026-05-06 19:25 | 30.06367 | 31.43302 | 36076 ft | 465 kts | 303° |
| 2026-05-06 19:25 | 30.10502 | 31.37532 | 36078 ft | 468 kts | 311° |
| 2026-05-06 19:26 | 30.15273 | 31.32396 | 36078 ft | 469 kts | 314° |
| 2026-05-06 19:26 | 30.20052 | 31.27251 | 36077 ft | 469 kts | 313° |
| 2026-05-06 19:27 | 30.24828 | 31.22106 | 36079 ft | 469 kts | 314° |
| 2026-05-06 19:27 | 30.29610 | 31.16955 | 36080 ft | 469 kts | 314° |
| 2026-05-06 19:28 | 30.34386 | 31.11805 | 36085 ft | 469 kts | 314° |
| 2026-05-06 19:28 | 30.39156 | 31.06655 | 36088 ft | 469 kts | 314° |
| 2026-05-06 19:29 | 30.43925 | 31.01497 | 36088 ft | 469 kts | 314° |
| 2026-05-06 19:29 | 30.48691 | 30.96337 | 36089 ft | 468 kts | 314° |
| 2026-05-06 19:30 | 30.53444 | 30.91182 | 36092 ft | 468 kts | 314° |
| 2026-05-06 19:30 | 30.58172 | 30.86048 | 36093 ft | 468 kts | 314° |
| 2026-05-06 19:31 | 30.62919 | 30.80886 | 36090 ft | 467 kts | 314° |
| 2026-05-06 19:31 | 30.70031 | 30.73137 | 36092 ft | 467 kts | 314° |
| 2026-05-06 19:32 | 30.74766 | 30.67970 | 36098 ft | 467 kts | 314° |
| 2026-05-06 19:32 | 30.79490 | 30.62808 | 36089 ft | 466 kts | 314° |
| 2026-05-06 19:33 | 30.84208 | 30.57645 | 36088 ft | 466 kts | 314° |
| 2026-05-06 19:33 | 30.88937 | 30.52462 | 36109 ft | 466 kts | 314° |
| 2026-05-06 19:34 | 30.93650 | 30.47289 | 36111 ft | 466 kts | 314° |
| 2026-05-06 19:34 | 30.98362 | 30.42110 | 36110 ft | 465 kts | 314° |
| 2026-05-06 19:35 | 31.03071 | 30.36928 | 36097 ft | 465 kts | 314° |
| 2026-05-06 19:35 | 31.07453 | 30.31426 | 36097 ft | 462 kts | 303° |
| 2026-05-06 19:36 | 31.10556 | 30.24915 | 36101 ft | 458 kts | 290° |
| 2026-05-06 19:36 | 31.12538 | 30.17864 | 36102 ft | 458 kts | 287° |
| 2026-05-06 19:37 | 31.14482 | 30.10785 | 36104 ft | 458 kts | 287° |
| 2026-05-06 19:37 | 31.16091 | 30.04896 | 36107 ft | 458 kts | 287° |
| 2026-05-06 19:38 | 31.18617 | 29.96722 | 36105 ft | 459 kts | 294° |
| 2026-05-06 19:38 | 31.21768 | 29.90285 | 36104 ft | 461 kts | 303° |
| 2026-05-06 19:39 | 31.25581 | 29.84194 | 36104 ft | 461 kts | 304° |
| 2026-05-06 19:39 | 31.29358 | 29.78123 | 36105 ft | 461 kts | 304° |
| 2026-05-06 19:40 | 31.33129 | 29.72059 | 36107 ft | 461 kts | 304° |
| 2026-05-06 19:40 | 31.36878 | 29.66030 | 36108 ft | 461 kts | 304° |
| 2026-05-06 19:41 | 31.40644 | 29.59965 | 36106 ft | 461 kts | 304° |
| 2026-05-06 19:41 | 31.44412 | 29.53886 | 36108 ft | 461 kts | 304° |
| 2026-05-06 19:42 | 31.48174 | 29.47807 | 36109 ft | 460 kts | 304° |
| 2026-05-06 19:42 | 31.51929 | 29.41732 | 36107 ft | 460 kts | 304° |
| 2026-05-06 19:43 | 31.55680 | 29.35652 | 36107 ft | 460 kts | 304° |
| 2026-05-06 19:43 | 31.59425 | 29.29573 | 36104 ft | 460 kts | 304° |
| 2026-05-06 19:44 | 31.63160 | 29.23483 | 36104 ft | 460 kts | 304° |
| 2026-05-06 19:44 | 31.66884 | 29.17398 | 36106 ft | 460 kts | 304° |
| 2026-05-06 19:45 | 31.70617 | 29.11291 | 36109 ft | 460 kts | 304° |
| 2026-05-06 19:45 | 31.74356 | 29.05167 | 36109 ft | 461 kts | 304° |
| 2026-05-06 19:46 | 31.78090 | 28.99040 | 36113 ft | 461 kts | 304° |
| 2026-05-06 19:46 | 31.81820 | 28.92916 | 36117 ft | 461 kts | 304° |
| 2026-05-06 19:47 | 31.85551 | 28.86780 | 36116 ft | 461 kts | 304° |
| 2026-05-06 19:47 | 31.89274 | 28.80645 | 36116 ft | 461 kts | 304° |
| 2026-05-06 19:48 | 31.92998 | 28.74499 | 36115 ft | 461 kts | 304° |
| 2026-05-06 19:48 | 31.96713 | 28.68358 | 36114 ft | 461 kts | 304° |
| 2026-05-06 19:49 | 32.00425 | 28.62212 | 36117 ft | 461 kts | 304° |
| 2026-05-06 19:49 | 32.04136 | 28.56057 | 36115 ft | 461 kts | 304° |
| 2026-05-06 19:50 | 32.07844 | 28.49899 | 36116 ft | 461 kts | 304° |
| 2026-05-06 19:50 | 32.11544 | 28.43742 | 36116 ft | 461 kts | 304° |
| 2026-05-06 19:51 | 32.15226 | 28.37606 | 36113 ft | 461 kts | 304° |
| 2026-05-06 19:51 | 32.18923 | 28.31436 | 36114 ft | 461 kts | 304° |
| 2026-05-06 19:52 | 32.22623 | 28.25250 | 36117 ft | 461 kts | 304° |
| 2026-05-06 19:52 | 32.26317 | 28.19064 | 36115 ft | 461 kts | 304° |
| 2026-05-06 19:53 | 32.30008 | 28.12873 | 36139 ft | 463 kts | 304° |
| 2026-05-06 19:53 | 32.31861 | 28.09760 | 36524 ft | 463 kts | 304° |
| 2026-05-06 19:53 | 32.33710 | 28.06653 | 37010 ft | 461 kts | 304° |
| 2026-05-06 19:54 | 32.35556 | 28.03549 | 37450 ft | 460 kts | 304° |
| 2026-05-06 19:54 | 32.37393 | 28.00456 | 37884 ft | 459 kts | 304° |
| 2026-05-06 19:54 | 32.39232 | 27.97356 | 38112 ft | 463 kts | 304° |
| 2026-05-06 19:54 | 32.41072 | 27.94254 | 38115 ft | 456 kts | 304° |
| 2026-05-06 19:55 | 32.44699 | 27.88131 | 38117 ft | 456 kts | 304° |
| 2026-05-06 19:55 | 32.48339 | 27.81975 | 38116 ft | 456 kts | 304° |
| 2026-05-06 19:56 | 32.51980 | 27.75807 | 38118 ft | 457 kts | 304° |
| 2026-05-06 19:56 | 32.55588 | 27.69686 | 38125 ft | 457 kts | 304° |
| 2026-05-06 19:57 | 32.59225 | 27.63505 | 38120 ft | 457 kts | 304° |
| 2026-05-06 19:57 | 32.62861 | 27.57316 | 38124 ft | 457 kts | 304° |
| 2026-05-06 19:58 | 32.66497 | 27.51117 | 38125 ft | 458 kts | 304° |
| 2026-05-06 19:58 | 32.70130 | 27.44914 | 38123 ft | 458 kts | 304° |
| 2026-05-06 19:59 | 32.73759 | 27.38701 | 38126 ft | 457 kts | 304° |
| 2026-05-06 19:59 | 32.77378 | 27.32479 | 38125 ft | 457 kts | 304° |
| 2026-05-06 20:00 | 32.80377 | 27.27318 | 38123 ft | 457 kts | 304° |
| 2026-05-06 20:00 | 32.83989 | 27.21094 | 38125 ft | 457 kts | 304° |
| 2026-05-06 20:01 | 32.87592 | 27.14874 | 38117 ft | 457 kts | 304° |
| 2026-05-06 20:01 | 32.91196 | 27.08645 | 38123 ft | 456 kts | 304° |
| 2026-05-06 20:02 | 32.94790 | 27.02420 | 38127 ft | 456 kts | 303° |
| 2026-05-06 20:02 | 32.98390 | 26.96176 | 38119 ft | 457 kts | 303° |
| 2026-05-06 20:03 | 33.01975 | 26.89929 | 38115 ft | 457 kts | 303° |
| 2026-05-06 20:03 | 33.05558 | 26.83680 | 38122 ft | 457 kts | 303° |
| 2026-05-06 20:04 | 33.09142 | 26.77419 | 38126 ft | 457 kts | 303° |
| 2026-05-06 20:04 | 33.12728 | 26.71144 | 38125 ft | 457 kts | 303° |
| 2026-05-06 20:05 | 33.16307 | 26.64870 | 38124 ft | 457 kts | 303° |
| 2026-05-06 20:05 | 33.19885 | 26.58588 | 38125 ft | 457 kts | 303° |
| 2026-05-06 20:06 | 33.23459 | 26.52301 | 38126 ft | 457 kts | 303° |
| 2026-05-06 20:06 | 33.27030 | 26.46009 | 38129 ft | 457 kts | 303° |
| 2026-05-06 20:07 | 33.30569 | 26.39763 | 38127 ft | 457 kts | 303° |
| 2026-05-06 20:07 | 33.34133 | 26.33461 | 38131 ft | 457 kts | 303° |
| 2026-05-06 20:08 | 33.37692 | 26.27159 | 38130 ft | 457 kts | 303° |
| 2026-05-06 20:08 | 33.41243 | 26.20858 | 38129 ft | 457 kts | 303° |
| 2026-05-06 20:09 | 33.44789 | 26.14557 | 38130 ft | 457 kts | 303° |
| 2026-05-06 20:09 | 33.48342 | 26.08232 | 38129 ft | 457 kts | 303° |
| 2026-05-06 20:10 | 33.51886 | 26.01913 | 38133 ft | 457 kts | 303° |
| 2026-05-06 20:10 | 33.55424 | 25.95593 | 38133 ft | 457 kts | 303° |
| 2026-05-06 20:11 | 33.58961 | 25.89264 | 38127 ft | 457 kts | 303° |
| 2026-05-06 20:11 | 33.62495 | 25.82930 | 38126 ft | 457 kts | 303° |
| 2026-05-06 20:12 | 33.66023 | 25.76593 | 38127 ft | 457 kts | 303° |
| 2026-05-06 20:12 | 33.69554 | 25.70244 | 38132 ft | 457 kts | 303° |
| 2026-05-06 20:13 | 33.73075 | 25.63898 | 38124 ft | 457 kts | 303° |
| 2026-05-06 20:13 | 33.76591 | 25.57552 | 38124 ft | 457 kts | 303° |
| 2026-05-06 20:14 | 33.80108 | 25.51194 | 38130 ft | 457 kts | 303° |
| 2026-05-06 20:14 | 33.83617 | 25.44837 | 38130 ft | 457 kts | 303° |
| 2026-05-06 20:15 | 33.87135 | 25.38454 | 38133 ft | 457 kts | 303° |
| 2026-05-06 20:15 | 33.90643 | 25.32078 | 38130 ft | 457 kts | 303° |
| 2026-05-06 20:16 | 33.94128 | 25.25731 | 38136 ft | 457 kts | 303° |
| 2026-05-06 20:16 | 33.97629 | 25.19337 | 38131 ft | 457 kts | 302° |
| 2026-05-06 20:17 | 34.00623 | 25.12592 | 38121 ft | 457 kts | 294° |
| 2026-05-06 20:17 | 34.02864 | 25.05424 | 38123 ft | 457 kts | 290° |
| 2026-05-06 20:18 | 34.05044 | 24.98212 | 38115 ft | 458 kts | 290° |
| 2026-05-06 20:18 | 34.07216 | 24.91002 | 38116 ft | 458 kts | 290° |
| 2026-05-06 20:19 | 34.09381 | 24.83766 | 38115 ft | 458 kts | 290° |
| 2026-05-06 20:19 | 34.11535 | 24.76544 | 38115 ft | 458 kts | 290° |
| 2026-05-06 20:20 | 34.13686 | 24.69312 | 38115 ft | 458 kts | 290° |
| 2026-05-06 20:20 | 34.15834 | 24.62072 | 38116 ft | 458 kts | 290° |
| 2026-05-06 20:21 | 34.17977 | 24.54832 | 38117 ft | 458 kts | 290° |
| 2026-05-06 20:21 | 34.20115 | 24.47592 | 38121 ft | 458 kts | 290° |
| 2026-05-06 20:22 | 34.22249 | 24.40344 | 38128 ft | 458 kts | 290° |
| 2026-05-06 20:22 | 34.24363 | 24.33150 | 38124 ft | 457 kts | 290° |
| 2026-05-06 20:23 | 34.26486 | 24.25906 | 38123 ft | 457 kts | 290° |
| 2026-05-06 20:23 | 34.28607 | 24.18648 | 38123 ft | 457 kts | 290° |
| 2026-05-06 20:24 | 34.30721 | 24.11399 | 38119 ft | 457 kts | 290° |
| 2026-05-06 20:24 | 34.32830 | 24.04147 | 38121 ft | 457 kts | 290° |
| 2026-05-06 20:25 | 34.34932 | 23.96900 | 38122 ft | 456 kts | 290° |
| 2026-05-06 20:25 | 34.37026 | 23.89665 | 38121 ft | 456 kts | 290° |
| 2026-05-06 20:26 | 34.39119 | 23.82413 | 38119 ft | 456 kts | 290° |
| 2026-05-06 20:26 | 34.41204 | 23.75172 | 38109 ft | 455 kts | 290° |
| 2026-05-06 20:27 | 34.43273 | 23.67967 | 38111 ft | 455 kts | 290° |
| 2026-05-06 20:27 | 34.45357 | 23.60690 | 38114 ft | 455 kts | 290° |
| 2026-05-06 20:28 | 34.47428 | 23.53442 | 38117 ft | 454 kts | 290° |
| 2026-05-06 20:28 | 34.49488 | 23.46214 | 38104 ft | 454 kts | 290° |
| 2026-05-06 20:29 | 34.51533 | 23.39018 | 38105 ft | 454 kts | 290° |
| 2026-05-06 20:29 | 34.53586 | 23.31779 | 38104 ft | 454 kts | 290° |
| 2026-05-06 20:30 | 34.56666 | 23.20879 | 38114 ft | 453 kts | 290° |
| 2026-05-06 20:31 | 34.58685 | 23.13713 | 38113 ft | 453 kts | 290° |
| 2026-05-06 20:31 | 34.60716 | 23.06483 | 38112 ft | 452 kts | 290° |
| 2026-05-06 20:32 | 34.62628 | 22.99224 | 38112 ft | 452 kts | 285° |
| 2026-05-06 20:32 | 34.63931 | 22.91750 | 38111 ft | 452 kts | 283° |
| 2026-05-06 20:33 | 34.65211 | 22.84264 | 38113 ft | 452 kts | 283° |
| 2026-05-06 20:33 | 34.66497 | 22.76807 | 38112 ft | 451 kts | 283° |
| 2026-05-06 20:34 | 34.67778 | 22.69341 | 38110 ft | 451 kts | 283° |
| 2026-05-06 20:34 | 34.69051 | 22.61888 | 38110 ft | 451 kts | 283° |
| 2026-05-06 20:35 | 34.70319 | 22.54432 | 38111 ft | 450 kts | 283° |
| 2026-05-06 20:35 | 34.71572 | 22.47035 | 38116 ft | 450 kts | 283° |
| 2026-05-06 20:36 | 34.72828 | 22.39589 | 38114 ft | 450 kts | 283° |
| 2026-05-06 20:36 | 34.74079 | 22.32136 | 38112 ft | 449 kts | 283° |
| 2026-05-06 20:37 | 34.75320 | 22.24692 | 38113 ft | 449 kts | 283° |
| 2026-05-06 20:37 | 34.76556 | 22.17256 | 38114 ft | 449 kts | 283° |
| 2026-05-06 20:38 | 34.77788 | 22.09810 | 38110 ft | 448 kts | 283° |
| 2026-05-06 20:38 | 34.79011 | 22.02393 | 38113 ft | 448 kts | 283° |
| 2026-05-06 20:39 | 34.80232 | 21.94954 | 38111 ft | 447 kts | 283° |
| 2026-05-06 20:39 | 34.81442 | 21.87551 | 38116 ft | 447 kts | 283° |
| 2026-05-06 20:40 | 34.82650 | 21.80135 | 38115 ft | 446 kts | 283° |
| 2026-05-06 20:40 | 34.83849 | 21.72742 | 38116 ft | 445 kts | 283° |
| 2026-05-06 20:41 | 34.85035 | 21.65402 | 38116 ft | 444 kts | 283° |
| 2026-05-06 20:41 | 34.86224 | 21.58017 | 38117 ft | 443 kts | 283° |
| 2026-05-06 20:42 | 34.87402 | 21.50665 | 38118 ft | 442 kts | 283° |
| 2026-05-06 20:42 | 34.88575 | 21.43316 | 38116 ft | 441 kts | 283° |
| 2026-05-06 20:43 | 34.89738 | 21.35995 | 38113 ft | 440 kts | 283° |
| 2026-05-06 20:43 | 34.90896 | 21.28686 | 38118 ft | 438 kts | 283° |
| 2026-05-06 20:44 | 34.92044 | 21.21402 | 38117 ft | 437 kts | 283° |
| 2026-05-06 20:44 | 34.93178 | 21.14183 | 38105 ft | 436 kts | 283° |
| 2026-05-06 20:45 | 34.94316 | 21.06904 | 38101 ft | 434 kts | 283° |
| 2026-05-06 20:45 | 34.95431 | 20.99747 | 38105 ft | 433 kts | 283° |
| 2026-05-06 20:46 | 34.96551 | 20.92531 | 38106 ft | 432 kts | 283° |
| 2026-05-06 20:46 | 34.97109 | 20.88925 | 38398 ft | 433 kts | 283° |
| 2026-05-06 20:46 | 34.97665 | 20.85323 | 38925 ft | 430 kts | 283° |
| 2026-05-06 20:46 | 34.98215 | 20.81749 | 39297 ft | 429 kts | 283° |
| 2026-05-06 20:47 | 34.98763 | 20.78183 | 39562 ft | 429 kts | 283° |
| 2026-05-06 20:47 | 34.99312 | 20.74607 | 39845 ft | 430 kts | 283° |
| 2026-05-06 20:47 | 34.99865 | 20.71002 | 40071 ft | 432 kts | 283° |
| 2026-05-06 20:48 | 35.00959 | 20.63823 | 40104 ft | 426 kts | 283° |
| 2026-05-06 20:48 | 35.02039 | 20.56718 | 40104 ft | 426 kts | 282° |
| 2026-05-06 20:49 | 35.03113 | 20.49624 | 40102 ft | 426 kts | 282° |
| 2026-05-06 20:49 | 35.04182 | 20.42537 | 40104 ft | 424 kts | 282° |
| 2026-05-06 20:50 | 35.05245 | 20.35457 | 40102 ft | 423 kts | 282° |
| 2026-05-06 20:50 | 35.06301 | 20.28390 | 40104 ft | 423 kts | 282° |
| 2026-05-06 20:51 | 35.07350 | 20.21348 | 40104 ft | 422 kts | 282° |
| 2026-05-06 20:51 | 35.08218 | 20.15493 | 40103 ft | 421 kts | 282° |
| 2026-05-06 20:52 | 35.09257 | 20.08461 | 40094 ft | 420 kts | 282° |
| 2026-05-06 20:52 | 35.10291 | 20.01434 | 40094 ft | 420 kts | 282° |
| 2026-05-06 20:53 | 35.11485 | 19.93285 | 40094 ft | 419 kts | 282° |
| 2026-05-06 20:53 | 35.12506 | 19.86289 | 40095 ft | 419 kts | 282° |
| 2026-05-06 20:54 | 35.13357 | 19.80429 | 40092 ft | 418 kts | 282° |
| 2026-05-06 20:54 | 35.14363 | 19.73476 | 40095 ft | 418 kts | 282° |
| 2026-05-06 20:55 | 35.15369 | 19.66497 | 40100 ft | 417 kts | 282° |
| 2026-05-06 20:55 | 35.16368 | 19.59535 | 40088 ft | 416 kts | 282° |
| 2026-05-06 20:56 | 35.17360 | 19.52588 | 40089 ft | 415 kts | 282° |
| 2026-05-06 20:56 | 35.18349 | 19.45639 | 40094 ft | 414 kts | 282° |
| 2026-05-06 20:57 | 35.19329 | 19.38722 | 40092 ft | 413 kts | 282° |
| 2026-05-06 20:57 | 35.20302 | 19.31828 | 40083 ft | 411 kts | 282° |
| 2026-05-06 20:58 | 35.21268 | 19.24945 | 40074 ft | 410 kts | 282° |
| 2026-05-06 20:58 | 35.22229 | 19.18077 | 40075 ft | 409 kts | 282° |
| 2026-05-06 20:59 | 35.23183 | 19.11228 | 40072 ft | 408 kts | 282° |
| 2026-05-06 20:59 | 35.24131 | 19.04391 | 40067 ft | 408 kts | 282° |
| 2026-05-06 21:00 | 35.25076 | 18.97553 | 40061 ft | 407 kts | 282° |
| 2026-05-06 21:00 | 35.26016 | 18.90713 | 40061 ft | 407 kts | 282° |
| 2026-05-06 21:01 | 35.26950 | 18.83890 | 40058 ft | 407 kts | 282° |
| 2026-05-06 21:01 | 35.27880 | 18.77065 | 40062 ft | 406 kts | 282° |
| 2026-05-06 21:02 | 35.28804 | 18.70262 | 40061 ft | 406 kts | 282° |
| 2026-05-06 21:02 | 35.29721 | 18.63476 | 40060 ft | 406 kts | 282° |
| 2026-05-06 21:03 | 35.30639 | 18.56654 | 40060 ft | 406 kts | 282° |
| 2026-05-06 21:03 | 35.31552 | 18.49835 | 40059 ft | 406 kts | 282° |
| 2026-05-06 21:04 | 35.32461 | 18.43021 | 40051 ft | 405 kts | 282° |
| 2026-05-06 21:04 | 35.33364 | 18.36215 | 40045 ft | 405 kts | 282° |
| 2026-05-06 21:05 | 35.34263 | 18.29417 | 40045 ft | 404 kts | 282° |
| 2026-05-06 21:05 | 35.35155 | 18.22633 | 40038 ft | 403 kts | 282° |
| 2026-05-06 21:06 | 35.36044 | 18.15850 | 40053 ft | 403 kts | 282° |
| 2026-05-06 21:06 | 35.36927 | 18.09076 | 40042 ft | 402 kts | 281° |
| 2026-05-06 21:07 | 35.37805 | 18.02316 | 40043 ft | 402 kts | 281° |
| 2026-05-06 21:07 | 35.38678 | 17.95565 | 40046 ft | 401 kts | 281° |
| 2026-05-06 21:08 | 35.39547 | 17.88810 | 40028 ft | 401 kts | 281° |
| 2026-05-06 21:08 | 35.40411 | 17.82062 | 40026 ft | 400 kts | 281° |
| 2026-05-06 21:09 | 35.41269 | 17.75331 | 40033 ft | 399 kts | 281° |
| 2026-05-06 21:09 | 35.42122 | 17.68611 | 40028 ft | 399 kts | 281° |
| 2026-05-06 21:10 | 35.42970 | 17.61898 | 40027 ft | 398 kts | 281° |
| 2026-05-06 21:10 | 35.43813 | 17.55195 | 40026 ft | 397 kts | 281° |
| 2026-05-06 21:11 | 35.44644 | 17.48557 | 40020 ft | 397 kts | 281° |
| 2026-05-06 21:11 | 35.45477 | 17.41871 | 40015 ft | 396 kts | 281° |
| 2026-05-06 21:12 | 35.46303 | 17.35210 | 40006 ft | 395 kts | 281° |
| 2026-05-06 21:12 | 35.47118 | 17.28609 | 40010 ft | 394 kts | 281° |
| 2026-05-06 21:13 | 35.47933 | 17.21974 | 39999 ft | 393 kts | 281° |
| 2026-05-06 21:13 | 35.48743 | 17.15350 | 39998 ft | 392 kts | 281° |
| 2026-05-06 21:14 | 35.49547 | 17.08746 | 39995 ft | 392 kts | 281° |
| 2026-05-06 21:14 | 35.50349 | 17.02127 | 39987 ft | 392 kts | 281° |
| 2026-05-06 21:15 | 35.51147 | 16.95515 | 39987 ft | 391 kts | 280° |
| 2026-05-06 21:15 | 35.51940 | 16.88906 | 39985 ft | 391 kts | 280° |
| 2026-05-06 21:16 | 35.52731 | 16.82288 | 39983 ft | 391 kts | 280° |
| 2026-05-06 21:16 | 35.53512 | 16.75717 | 39973 ft | 391 kts | 280° |
| 2026-05-06 21:17 | 35.54295 | 16.69103 | 39982 ft | 392 kts | 280° |
| 2026-05-06 21:17 | 35.55074 | 16.62488 | 39974 ft | 392 kts | 280° |
| 2026-05-06 21:18 | 35.55849 | 16.55872 | 39974 ft | 392 kts | 280° |
| 2026-05-06 21:18 | 35.56622 | 16.49246 | 39975 ft | 392 kts | 280° |
| 2026-05-06 21:19 | 35.57391 | 16.42615 | 39972 ft | 392 kts | 279° |
| 2026-05-06 21:19 | 35.58157 | 16.35983 | 39966 ft | 392 kts | 279° |
| 2026-05-06 21:20 | 35.58919 | 16.29350 | 39970 ft | 392 kts | 279° |
| 2026-05-06 21:20 | 35.59679 | 16.22708 | 39970 ft | 392 kts | 279° |
| 2026-05-06 21:21 | 35.60434 | 16.16070 | 39967 ft | 392 kts | 279° |
| 2026-05-06 21:21 | 35.61185 | 16.09436 | 39963 ft | 392 kts | 279° |
| 2026-05-06 21:22 | 35.61932 | 16.02798 | 39965 ft | 392 kts | 279° |
| 2026-05-06 21:22 | 35.62676 | 15.96166 | 39962 ft | 392 kts | 279° |
| 2026-05-06 21:23 | 35.63417 | 15.89519 | 39960 ft | 392 kts | 279° |
| 2026-05-06 21:23 | 35.64152 | 15.82888 | 39959 ft | 392 kts | 279° |
| 2026-05-06 21:24 | 35.64883 | 15.76265 | 39953 ft | 391 kts | 278° |
| 2026-05-06 21:24 | 35.65612 | 15.69628 | 39958 ft | 391 kts | 278° |
| 2026-05-06 21:25 | 35.66336 | 15.62998 | 39956 ft | 391 kts | 278° |
| 2026-05-06 21:25 | 35.67055 | 15.56376 | 39955 ft | 391 kts | 278° |
| 2026-05-06 21:26 | 35.67770 | 15.49759 | 39944 ft | 390 kts | 278° |
| 2026-05-06 21:26 | 35.68482 | 15.43144 | 39946 ft | 390 kts | 278° |
| 2026-05-06 21:27 | 35.69189 | 15.36535 | 39944 ft | 390 kts | 278° |
| 2026-05-06 21:27 | 35.69892 | 15.29924 | 39943 ft | 390 kts | 278° |
| 2026-05-06 21:28 | 35.70586 | 15.23361 | 39936 ft | 389 kts | 278° |
| 2026-05-06 21:28 | 35.71286 | 15.16710 | 39935 ft | 389 kts | 278° |
| 2026-05-06 21:29 | 35.71974 | 15.10140 | 39932 ft | 389 kts | 277° |
| 2026-05-06 21:29 | 35.72662 | 15.03532 | 39925 ft | 389 kts | 277° |
| 2026-05-06 21:30 | 35.73346 | 14.96928 | 39923 ft | 389 kts | 277° |
| 2026-05-06 21:30 | 35.74027 | 14.90319 | 39921 ft | 389 kts | 277° |
| 2026-05-06 21:31 | 35.74702 | 14.83725 | 39921 ft | 389 kts | 277° |
| 2026-05-06 21:31 | 35.75375 | 14.77120 | 39927 ft | 389 kts | 277° |
| 2026-05-06 21:32 | 35.76044 | 14.70514 | 39928 ft | 389 kts | 277° |
| 2026-05-06 21:32 | 35.77040 | 14.60615 | 39936 ft | 389 kts | 277° |
| 2026-05-06 21:33 | 35.77701 | 14.54006 | 39938 ft | 389 kts | 276° |
| 2026-05-06 21:33 | 35.78357 | 14.47401 | 39940 ft | 388 kts | 276° |
| 2026-05-06 21:34 | 35.79009 | 14.40799 | 39939 ft | 388 kts | 276° |
| 2026-05-06 21:34 | 35.79658 | 14.34193 | 39934 ft | 388 kts | 276° |
| 2026-05-06 21:35 | 35.80302 | 14.27598 | 39927 ft | 388 kts | 276° |
| 2026-05-06 21:35 | 35.80942 | 14.21000 | 39916 ft | 388 kts | 276° |
| 2026-05-06 21:36 | 35.81579 | 14.14399 | 39902 ft | 388 kts | 276° |
| 2026-05-06 21:36 | 35.82213 | 14.07799 | 39885 ft | 388 kts | 276° |
| 2026-05-06 21:37 | 35.82838 | 14.01246 | 39878 ft | 388 kts | 276° |
| 2026-05-06 21:37 | 35.83467 | 13.94607 | 39871 ft | 388 kts | 276° |
| 2026-05-06 21:38 | 35.84086 | 13.88049 | 39861 ft | 388 kts | 276° |
| 2026-05-06 21:38 | 35.84704 | 13.81446 | 39857 ft | 388 kts | 275° |
| 2026-05-06 21:39 | 35.85320 | 13.74843 | 39856 ft | 388 kts | 275° |
| 2026-05-06 21:39 | 35.85931 | 13.68243 | 39857 ft | 388 kts | 275° |
| 2026-05-06 21:40 | 35.86540 | 13.61621 | 39849 ft | 388 kts | 275° |
| 2026-05-06 21:40 | 35.87145 | 13.55009 | 39846 ft | 388 kts | 275° |
| 2026-05-06 21:41 | 35.87746 | 13.48395 | 39847 ft | 388 kts | 275° |
| 2026-05-06 21:41 | 35.88344 | 13.41784 | 39846 ft | 388 kts | 275° |
| 2026-05-06 21:42 | 35.88842 | 13.36238 | 39839 ft | 388 kts | 275° |
| 2026-05-06 21:42 | 35.89529 | 13.28542 | 39836 ft | 389 kts | 275° |
| 2026-05-06 21:43 | 35.90116 | 13.21917 | 39833 ft | 389 kts | 275° |
| 2026-05-06 21:43 | 35.90602 | 13.16405 | 39830 ft | 389 kts | 275° |
| 2026-05-06 21:44 | 35.91183 | 13.09772 | 39833 ft | 389 kts | 274° |
| 2026-05-06 21:44 | 35.91762 | 13.03128 | 39832 ft | 389 kts | 274° |
| 2026-05-06 21:45 | 35.92336 | 12.96490 | 39830 ft | 389 kts | 274° |
| 2026-05-06 21:45 | 35.92907 | 12.89851 | 39824 ft | 390 kts | 274° |
| 2026-05-06 21:46 | 35.93474 | 12.83198 | 39827 ft | 390 kts | 274° |
| 2026-05-06 21:46 | 35.94038 | 12.76550 | 39826 ft | 390 kts | 274° |
| 2026-05-06 21:47 | 35.94598 | 12.69908 | 39828 ft | 389 kts | 274° |
| 2026-05-06 21:47 | 35.95155 | 12.63255 | 39825 ft | 389 kts | 274° |
| 2026-05-06 21:48 | 35.95707 | 12.56612 | 39831 ft | 389 kts | 274° |
| 2026-05-06 21:48 | 35.96255 | 12.49974 | 39828 ft | 389 kts | 274° |
| 2026-05-06 21:49 | 35.96799 | 12.43342 | 39818 ft | 388 kts | 274° |
| 2026-05-06 21:49 | 35.97335 | 12.36758 | 39826 ft | 388 kts | 274° |
| 2026-05-06 21:50 | 35.97871 | 12.30136 | 39825 ft | 387 kts | 274° |
| 2026-05-06 21:50 | 35.98402 | 12.23517 | 39823 ft | 387 kts | 274° |
| 2026-05-06 21:51 | 35.98930 | 12.16907 | 39838 ft | 387 kts | 274° |
| 2026-05-06 21:51 | 35.99453 | 12.10294 | 39831 ft | 387 kts | 274° |
| 2026-05-06 21:52 | 35.99973 | 12.03686 | 39824 ft | 387 kts | 274° |
| 2026-05-06 21:52 | 36.00491 | 11.97083 | 39827 ft | 387 kts | 273° |
| 2026-05-06 21:53 | 36.01008 | 11.90469 | 39829 ft | 387 kts | 273° |
| 2026-05-06 21:53 | 36.01520 | 11.83862 | 39829 ft | 387 kts | 273° |
| 2026-05-06 21:54 | 36.02027 | 11.77276 | 39830 ft | 387 kts | 273° |
| 2026-05-06 21:54 | 36.02534 | 11.70632 | 39834 ft | 387 kts | 273° |
| 2026-05-06 21:55 | 36.03037 | 11.64010 | 39832 ft | 387 kts | 273° |
| 2026-05-06 21:55 | 36.03535 | 11.57390 | 39837 ft | 387 kts | 273° |
| 2026-05-06 21:56 | 36.04001 | 11.50766 | 39837 ft | 387 kts | 272° |
| 2026-05-06 21:56 | 36.04256 | 11.44135 | 39838 ft | 386 kts | 270° |
| 2026-05-06 21:57 | 36.04469 | 11.37523 | 39840 ft | 386 kts | 270° |
| 2026-05-06 21:57 | 36.04709 | 11.30886 | 39844 ft | 386 kts | 270° |
| 2026-05-06 21:58 | 36.04938 | 11.24300 | 39847 ft | 386 kts | 270° |
| 2026-05-06 21:58 | 36.05162 | 11.17680 | 39851 ft | 386 kts | 270° |
| 2026-05-06 21:59 | 36.05380 | 11.11050 | 39852 ft | 386 kts | 270° |
| 2026-05-06 21:59 | 36.05595 | 11.04427 | 39852 ft | 386 kts | 270° |
| 2026-05-06 22:00 | 36.05806 | 10.97802 | 39855 ft | 386 kts | 270° |
| 2026-05-06 22:00 | 36.06013 | 10.91179 | 39860 ft | 386 kts | 269° |
| 2026-05-06 22:01 | 36.06217 | 10.84561 | 39856 ft | 385 kts | 269° |
| 2026-05-06 22:01 | 36.06416 | 10.77948 | 39869 ft | 385 kts | 269° |
| 2026-05-06 22:02 | 36.06612 | 10.71337 | 39879 ft | 385 kts | 269° |
| 2026-05-06 22:02 | 36.06805 | 10.64716 | 39875 ft | 386 kts | 269° |
| 2026-05-06 22:03 | 36.06994 | 10.58096 | 39883 ft | 386 kts | 269° |
| 2026-05-06 22:03 | 36.07179 | 10.51463 | 39878 ft | 386 kts | 269° |
| 2026-05-06 22:04 | 36.07658 | 10.44829 | 39877 ft | 389 kts | 275° |
| 2026-05-06 22:04 | 36.08833 | 10.38264 | 39878 ft | 394 kts | 281° |
| 2026-05-06 22:05 | 36.10547 | 10.31784 | 39878 ft | 397 kts | 282° |
| 2026-05-06 22:05 | 36.12277 | 10.25294 | 39877 ft | 398 kts | 282° |
| 2026-05-06 22:06 | 36.14006 | 10.18782 | 39884 ft | 399 kts | 282° |
| 2026-05-06 22:06 | 36.15443 | 10.12240 | 39886 ft | 395 kts | 276° |
| 2026-05-06 22:07 | 36.16313 | 10.05501 | 39892 ft | 394 kts | 274° |
| 2026-05-06 22:07 | 36.17141 | 9.98822 | 39897 ft | 395 kts | 274° |
| 2026-05-06 22:08 | 36.17971 | 9.92099 | 39901 ft | 396 kts | 274° |
| 2026-05-06 22:08 | 36.18792 | 9.85356 | 39904 ft | 396 kts | 274° |
| 2026-05-06 22:09 | 36.19609 | 9.78616 | 39906 ft | 396 kts | 274° |
| 2026-05-06 22:09 | 36.20422 | 9.71866 | 39910 ft | 397 kts | 274° |
| 2026-05-06 22:10 | 36.21234 | 9.65107 | 39911 ft | 397 kts | 274° |
| 2026-05-06 22:10 | 36.22040 | 9.58351 | 39912 ft | 397 kts | 274° |
| 2026-05-06 22:11 | 36.22844 | 9.51589 | 39921 ft | 397 kts | 274° |
| 2026-05-06 22:11 | 36.23645 | 9.44816 | 39918 ft | 397 kts | 274° |
| 2026-05-06 22:12 | 36.24439 | 9.38065 | 39921 ft | 396 kts | 274° |
| 2026-05-06 22:12 | 36.25229 | 9.31316 | 39919 ft | 396 kts | 274° |
| 2026-05-06 22:13 | 36.26287 | 9.24629 | 39920 ft | 398 kts | 277° |
| 2026-05-06 22:13 | 36.27454 | 9.17915 | 39920 ft | 398 kts | 277° |
| 2026-05-06 22:14 | 36.28573 | 9.11186 | 39917 ft | 398 kts | 277° |
| 2026-05-06 22:14 | 36.29670 | 9.04466 | 39922 ft | 399 kts | 277° |
| 2026-05-06 22:15 | 36.30768 | 8.97705 | 39920 ft | 399 kts | 277° |
| 2026-05-06 22:15 | 36.31862 | 8.90950 | 39918 ft | 400 kts | 277° |
| 2026-05-06 22:16 | 36.32955 | 8.84180 | 39927 ft | 400 kts | 277° |
| 2026-05-06 22:16 | 36.34042 | 8.77411 | 39927 ft | 401 kts | 277° |
| 2026-05-06 22:17 | 36.35127 | 8.70637 | 39935 ft | 401 kts | 277° |
| 2026-05-06 22:17 | 36.36212 | 8.63835 | 39931 ft | 402 kts | 277° |
| 2026-05-06 22:18 | 36.37292 | 8.57037 | 39929 ft | 402 kts | 277° |
| 2026-05-06 22:18 | 36.38369 | 8.50229 | 39937 ft | 402 kts | 277° |
| 2026-05-06 22:19 | 36.39445 | 8.43407 | 39923 ft | 402 kts | 277° |
| 2026-05-06 22:19 | 36.40395 | 8.36582 | 39920 ft | 400 kts | 273° |
| 2026-05-06 22:20 | 36.40754 | 8.29708 | 39926 ft | 399 kts | 270° |
| 2026-05-06 22:20 | 36.41005 | 8.22812 | 39930 ft | 400 kts | 270° |
| 2026-05-06 22:21 | 36.41265 | 8.15908 | 39931 ft | 401 kts | 270° |
| 2026-05-06 22:21 | 36.41515 | 8.08975 | 39943 ft | 403 kts | 270° |
| 2026-05-06 22:22 | 36.41759 | 8.02013 | 39948 ft | 404 kts | 270° |
| 2026-05-06 22:22 | 36.42000 | 7.95025 | 39958 ft | 406 kts | 270° |
| 2026-05-06 22:23 | 36.42236 | 7.88062 | 39960 ft | 407 kts | 270° |
| 2026-05-06 22:23 | 36.42471 | 7.81040 | 39969 ft | 408 kts | 270° |
| 2026-05-06 22:24 | 36.42702 | 7.73988 | 39974 ft | 408 kts | 270° |
| 2026-05-06 22:24 | 36.42929 | 7.66949 | 39977 ft | 408 kts | 270° |
| 2026-05-06 22:25 | 36.43151 | 7.59899 | 39963 ft | 408 kts | 270° |
| 2026-05-06 22:25 | 36.43398 | 7.53037 | 39961 ft | 384 kts | 269° |
| 2026-05-06 22:26 | 36.43581 | 7.46486 | 39962 ft | 381 kts | 269° |
| 2026-05-06 22:26 | 36.43762 | 7.39899 | 39961 ft | 382 kts | 269° |
| 2026-05-06 22:27 | 36.43953 | 7.33300 | 39950 ft | 382 kts | 269° |
| 2026-05-06 22:27 | 36.44143 | 7.26715 | 39967 ft | 383 kts | 269° |
| 2026-05-06 22:28 | 36.44331 | 7.20115 | 39949 ft | 381 kts | 269° |
| 2026-05-06 22:28 | 36.44513 | 7.13546 | 39945 ft | 380 kts | 269° |
| 2026-05-06 22:29 | 36.44690 | 7.06993 | 39943 ft | 379 kts | 269° |
| 2026-05-06 22:29 | 36.44864 | 7.00467 | 39940 ft | 378 kts | 269° |
| 2026-05-06 22:30 | 36.45032 | 6.93996 | 39939 ft | 377 kts | 269° |
| 2026-05-06 22:30 | 36.45198 | 6.87479 | 39949 ft | 378 kts | 269° |
| 2026-05-06 22:31 | 36.45361 | 6.80962 | 39956 ft | 378 kts | 269° |
| 2026-05-06 22:31 | 36.45521 | 6.74428 | 39967 ft | 379 kts | 268° |
| 2026-05-06 22:32 | 36.45677 | 6.67879 | 39976 ft | 381 kts | 268° |
| 2026-05-06 22:32 | 36.45831 | 6.61291 | 39986 ft | 382 kts | 268° |
| 2026-05-06 22:33 | 36.45981 | 6.54698 | 39990 ft | 382 kts | 268° |
| 2026-05-06 22:33 | 36.46103 | 6.49207 | 39999 ft | 382 kts | 268° |
| 2026-05-06 22:34 | 36.46271 | 6.41490 | 39990 ft | 382 kts | 268° |
| 2026-05-06 22:34 | 36.46388 | 6.36004 | 39984 ft | 382 kts | 268° |
| 2026-05-06 22:35 | 36.46523 | 6.29437 | 39973 ft | 381 kts | 268° |
| 2026-05-06 22:35 | 36.46658 | 6.22860 | 39955 ft | 380 kts | 268° |
| 2026-05-06 22:36 | 36.46785 | 6.16300 | 39951 ft | 379 kts | 268° |
| 2026-05-06 22:36 | 36.46909 | 6.09741 | 39955 ft | 380 kts | 268° |
| 2026-05-06 22:37 | 36.47029 | 6.03197 | 39955 ft | 379 kts | 268° |
| 2026-05-06 22:37 | 36.47146 | 5.96655 | 39957 ft | 378 kts | 268° |
| 2026-05-06 22:38 | 36.47261 | 5.90178 | 39940 ft | 377 kts | 268° |
| 2026-05-06 22:38 | 36.47373 | 5.83672 | 39930 ft | 376 kts | 267° |
| 2026-05-06 22:39 | 36.47474 | 5.77164 | 39942 ft | 377 kts | 267° |
| 2026-05-06 22:39 | 36.47575 | 5.70651 | 39951 ft | 377 kts | 267° |
| 2026-05-06 22:40 | 36.47672 | 5.64131 | 39951 ft | 377 kts | 267° |
| 2026-05-06 22:40 | 36.47766 | 5.57609 | 39960 ft | 377 kts | 267° |
| 2026-05-06 22:41 | 36.47900 | 5.47833 | 39965 ft | 377 kts | 267° |
| 2026-05-06 22:42 | 36.47986 | 5.41320 | 39961 ft | 377 kts | 267° |
| 2026-05-06 22:42 | 36.48074 | 5.34822 | 39955 ft | 375 kts | 267° |
| 2026-05-06 22:43 | 36.48152 | 5.28351 | 39932 ft | 374 kts | 267° |
| 2026-05-06 22:43 | 36.48222 | 5.21882 | 39938 ft | 375 kts | 267° |
| 2026-05-06 22:44 | 36.48292 | 5.15399 | 39939 ft | 376 kts | 267° |
| 2026-05-06 22:44 | 36.48359 | 5.08898 | 39950 ft | 376 kts | 267° |
| 2026-05-06 22:45 | 36.48418 | 5.02390 | 39955 ft | 377 kts | 266° |
| 2026-05-06 22:45 | 36.48086 | 4.95918 | 39955 ft | 375 kts | 261° |
| 2026-05-06 22:46 | 36.47488 | 4.89547 | 39951 ft | 373 kts | 261° |
| 2026-05-06 22:46 | 36.46911 | 4.83163 | 39946 ft | 372 kts | 261° |
| 2026-05-06 22:47 | 36.46328 | 4.76767 | 39950 ft | 373 kts | 261° |
| 2026-05-06 22:47 | 36.45738 | 4.70378 | 39955 ft | 373 kts | 261° |
| 2026-05-06 22:48 | 36.45143 | 4.63985 | 39950 ft | 372 kts | 261° |
| 2026-05-06 22:48 | 36.44545 | 4.57609 | 39944 ft | 372 kts | 261° |
| 2026-05-06 22:49 | 36.43945 | 4.51235 | 39940 ft | 371 kts | 261° |
| 2026-05-06 22:49 | 36.43342 | 4.44871 | 39940 ft | 370 kts | 261° |
| 2026-05-06 22:50 | 36.42738 | 4.38524 | 39924 ft | 370 kts | 261° |
| 2026-05-06 22:50 | 36.42131 | 4.32188 | 39928 ft | 370 kts | 261° |
| 2026-05-06 22:51 | 36.41520 | 4.25836 | 39934 ft | 371 kts | 260° |
| 2026-05-06 22:51 | 36.40904 | 4.19481 | 39938 ft | 371 kts | 260° |
| 2026-05-06 22:52 | 36.40284 | 4.13114 | 39939 ft | 372 kts | 260° |
| 2026-05-06 22:52 | 36.39665 | 4.06791 | 39944 ft | 372 kts | 260° |
| 2026-05-06 22:53 | 36.39036 | 4.00406 | 39937 ft | 372 kts | 260° |
| 2026-05-06 22:53 | 36.38401 | 3.93987 | 39945 ft | 372 kts | 260° |
| 2026-05-06 22:54 | 36.37765 | 3.87606 | 39945 ft | 372 kts | 260° |
| 2026-05-06 22:54 | 36.37127 | 3.81231 | 39941 ft | 372 kts | 260° |
| 2026-05-06 22:55 | 36.36488 | 3.74864 | 39935 ft | 372 kts | 260° |
| 2026-05-06 22:55 | 36.35843 | 3.68504 | 39937 ft | 372 kts | 260° |
| 2026-05-06 22:56 | 36.35202 | 3.62195 | 39936 ft | 371 kts | 260° |
| 2026-05-06 22:56 | 36.34552 | 3.55840 | 39939 ft | 372 kts | 259° |
| 2026-05-06 22:57 | 36.33899 | 3.49480 | 39939 ft | 372 kts | 259° |
| 2026-05-06 22:57 | 36.33241 | 3.43111 | 39944 ft | 372 kts | 259° |
| 2026-05-06 22:58 | 36.32579 | 3.36743 | 39949 ft | 372 kts | 259° |
| 2026-05-06 22:58 | 36.31916 | 3.30392 | 39945 ft | 372 kts | 259° |
| 2026-05-06 22:59 | 36.31248 | 3.24031 | 39939 ft | 372 kts | 259° |
| 2026-05-06 22:59 | 36.30577 | 3.17666 | 39945 ft | 372 kts | 259° |
| 2026-05-06 23:00 | 36.29904 | 3.11318 | 39936 ft | 372 kts | 259° |
| 2026-05-06 23:00 | 36.29227 | 3.04967 | 39927 ft | 371 kts | 259° |
| 2026-05-06 23:01 | 36.28548 | 2.98627 | 39930 ft | 371 kts | 259° |
| 2026-05-06 23:01 | 36.27864 | 2.92280 | 39934 ft | 372 kts | 259° |
| 2026-05-06 23:02 | 36.27176 | 2.85929 | 39936 ft | 373 kts | 259° |
| 2026-05-06 23:02 | 36.26486 | 2.79600 | 39940 ft | 373 kts | 259° |
| 2026-05-06 23:03 | 36.25785 | 2.73184 | 39937 ft | 374 kts | 259° |
| 2026-05-06 23:03 | 36.25084 | 2.66794 | 39941 ft | 375 kts | 259° |
| 2026-05-06 23:04 | 36.24382 | 2.60434 | 39937 ft | 375 kts | 258° |
| 2026-05-06 23:04 | 36.23668 | 2.54033 | 39936 ft | 375 kts | 259° |
| 2026-05-06 23:05 | 36.22951 | 2.47631 | 39939 ft | 376 kts | 259° |
| 2026-05-06 23:05 | 36.22230 | 2.41214 | 39939 ft | 376 kts | 259° |
| 2026-05-06 23:06 | 36.21507 | 2.34814 | 39931 ft | 376 kts | 258° |
| 2026-05-06 23:06 | 36.20781 | 2.28420 | 39928 ft | 375 kts | 258° |
| 2026-05-06 23:07 | 36.20050 | 2.22011 | 39926 ft | 375 kts | 258° |
| 2026-05-06 23:07 | 36.19316 | 2.15615 | 39926 ft | 375 kts | 258° |
| 2026-05-06 23:08 | 36.18580 | 2.09222 | 39925 ft | 375 kts | 258° |
| 2026-05-06 23:08 | 36.17840 | 2.02833 | 39919 ft | 375 kts | 258° |
| 2026-05-06 23:09 | 36.17098 | 1.96441 | 39919 ft | 375 kts | 258° |
| 2026-05-06 23:09 | 36.16352 | 1.90046 | 39919 ft | 376 kts | 258° |
| 2026-05-06 23:10 | 36.15603 | 1.83639 | 39922 ft | 377 kts | 258° |
| 2026-05-06 23:10 | 36.14830 | 1.77264 | 39895 ft | 371 kts | 257° |
| 2026-05-06 23:11 | 36.14042 | 1.71021 | 39925 ft | 365 kts | 257° |
| 2026-05-06 23:11 | 36.13679 | 1.67963 | 39921 ft | 354 kts | 258° |
| 2026-05-06 23:11 | 36.13344 | 1.65002 | 39925 ft | 343 kts | 258° |
| 2026-05-06 23:12 | 36.12663 | 1.59258 | 39929 ft | 336 kts | 256° |
| 2026-05-06 23:12 | 36.11835 | 1.53608 | 39924 ft | 337 kts | 253° |
| 2026-05-06 23:13 | 36.10558 | 1.48021 | 39870 ft | 339 kts | 249° |
| 2026-05-06 23:13 | 36.08829 | 1.42589 | 39818 ft | 341 kts | 244° |
| 2026-05-06 23:14 | 36.06871 | 1.37205 | 39751 ft | 344 kts | 245° |
| 2026-05-06 23:14 | 36.04915 | 1.31781 | 39703 ft | 347 kts | 245° |
| 2026-05-06 23:15 | 36.02937 | 1.26316 | 39649 ft | 350 kts | 245° |
| 2026-05-06 23:15 | 36.00937 | 1.20803 | 39590 ft | 353 kts | 245° |
| 2026-05-06 23:16 | 35.98919 | 1.15254 | 39538 ft | 356 kts | 244° |
| 2026-05-06 23:16 | 35.96878 | 1.09656 | 39470 ft | 358 kts | 244° |
| 2026-05-06 23:17 | 35.94825 | 1.04031 | 39413 ft | 361 kts | 244° |
| 2026-05-06 23:17 | 35.92748 | 0.98358 | 39322 ft | 365 kts | 244° |
| 2026-05-06 23:17 | 35.91702 | 0.95502 | 39214 ft | 369 kts | 244° |
| 2026-05-06 23:18 | 35.90636 | 0.92597 | 39134 ft | 371 kts | 244° |
| 2026-05-06 23:18 | 35.88497 | 0.86775 | 38999 ft | 375 kts | 244° |
| 2026-05-06 23:19 | 35.86328 | 0.80884 | 38883 ft | 379 kts | 244° |
| 2026-05-06 23:19 | 35.84262 | 0.75071 | 38730 ft | 362 kts | 245° |
| 2026-05-06 23:19 | 35.83265 | 0.72264 | 38621 ft | 356 kts | 245° |
| 2026-05-06 23:20 | 35.82257 | 0.69480 | 38505 ft | 357 kts | 245° |
| 2026-05-06 23:20 | 35.81232 | 0.66684 | 38364 ft | 358 kts | 245° |
| 2026-05-06 23:20 | 35.80201 | 0.63891 | 38221 ft | 359 kts | 244° |
| 2026-05-06 23:20 | 35.79164 | 0.61091 | 38084 ft | 360 kts | 244° |
| 2026-05-06 23:21 | 35.78122 | 0.58279 | 37952 ft | 360 kts | 244° |
| 2026-05-06 23:21 | 35.76046 | 0.52680 | 37907 ft | 360 kts | 244° |
| 2026-05-06 23:22 | 35.73957 | 0.47056 | 37905 ft | 361 kts | 244° |
| 2026-05-06 23:22 | 35.71865 | 0.41434 | 37906 ft | 361 kts | 244° |
| 2026-05-06 23:23 | 35.69769 | 0.35811 | 37909 ft | 361 kts | 244° |
| 2026-05-06 23:23 | 35.67676 | 0.30207 | 37904 ft | 361 kts | 244° |
| 2026-05-06 23:24 | 35.65576 | 0.24592 | 37896 ft | 361 kts | 244° |
| 2026-05-06 23:24 | 35.63476 | 0.18988 | 37898 ft | 361 kts | 244° |
| 2026-05-06 23:25 | 35.61727 | 0.14331 | 37890 ft | 361 kts | 244° |
| 2026-05-06 23:25 | 35.59623 | 0.08735 | 37898 ft | 361 kts | 244° |
| 2026-05-06 23:26 | 35.57510 | 0.03124 | 37900 ft | 361 kts | 244° |
| 2026-05-06 23:26 | 35.55396 | -0.02480 | 37897 ft | 361 kts | 244° |
| 2026-05-06 23:27 | 35.53295 | -0.08040 | 37896 ft | 362 kts | 244° |
| 2026-05-06 23:27 | 35.51170 | -0.13651 | 37901 ft | 363 kts | 244° |
| 2026-05-06 23:28 | 35.49035 | -0.19280 | 37907 ft | 364 kts | 244° |
| 2026-05-06 23:28 | 35.46890 | -0.24926 | 37921 ft | 366 kts | 244° |
| 2026-05-06 23:29 | 35.44735 | -0.30589 | 37933 ft | 367 kts | 244° |
| 2026-05-06 23:29 | 35.42570 | -0.36266 | 37929 ft | 368 kts | 244° |
| 2026-05-06 23:30 | 35.40398 | -0.41953 | 37935 ft | 369 kts | 243° |
| 2026-05-06 23:30 | 35.38226 | -0.47628 | 37930 ft | 368 kts | 243° |
| 2026-05-06 23:31 | 35.36028 | -0.53311 | 37945 ft | 369 kts | 243° |
| 2026-05-06 23:31 | 35.33733 | -0.58926 | 37950 ft | 369 kts | 242° |
| 2026-05-06 23:32 | 35.31427 | -0.64561 | 37947 ft | 370 kts | 242° |
| 2026-05-06 23:32 | 35.29149 | -0.70157 | 37952 ft | 370 kts | 242° |
| 2026-05-06 23:33 | 35.26831 | -0.75843 | 37946 ft | 371 kts | 242° |
| 2026-05-06 23:33 | 35.24539 | -0.81459 | 37931 ft | 371 kts | 242° |
| 2026-05-06 23:34 | 35.22210 | -0.87157 | 37920 ft | 372 kts | 242° |
| 2026-05-06 23:34 | 35.19908 | -0.92776 | 37926 ft | 372 kts | 242° |
| 2026-05-06 23:35 | 35.17589 | -0.98428 | 37925 ft | 373 kts | 242° |
| 2026-05-06 23:35 | 35.15263 | -1.04089 | 37926 ft | 373 kts | 242° |
| 2026-05-06 23:36 | 35.12930 | -1.09755 | 37929 ft | 374 kts | 242° |
| 2026-05-06 23:36 | 35.10578 | -1.15456 | 37935 ft | 375 kts | 242° |
| 2026-05-06 23:37 | 35.08225 | -1.21153 | 37931 ft | 377 kts | 242° |
| 2026-05-06 23:37 | 35.05864 | -1.26858 | 37940 ft | 377 kts | 242° |
| 2026-05-06 23:38 | 35.03496 | -1.32570 | 37941 ft | 377 kts | 242° |
| 2026-05-06 23:38 | 35.01128 | -1.38274 | 37941 ft | 377 kts | 242° |
| 2026-05-06 23:39 | 34.98752 | -1.43985 | 37942 ft | 377 kts | 242° |
| 2026-05-06 23:39 | 34.96379 | -1.49683 | 37941 ft | 377 kts | 242° |
| 2026-05-06 23:40 | 34.94002 | -1.55377 | 37940 ft | 377 kts | 242° |
| 2026-05-06 23:40 | 34.91620 | -1.61075 | 37940 ft | 377 kts | 242° |
| 2026-05-06 23:41 | 34.89239 | -1.66761 | 37938 ft | 377 kts | 241° |
| 2026-05-06 23:41 | 34.86857 | -1.72440 | 37931 ft | 377 kts | 241° |
| 2026-05-06 23:42 | 34.84470 | -1.78120 | 37931 ft | 377 kts | 241° |
| 2026-05-06 23:42 | 34.82092 | -1.83769 | 37934 ft | 377 kts | 241° |
| 2026-05-06 23:43 | 34.79700 | -1.89443 | 37938 ft | 378 kts | 241° |
| 2026-05-06 23:43 | 34.77407 | -1.95200 | 37936 ft | 379 kts | 245° |
| 2026-05-06 23:44 | 34.75694 | -2.01285 | 37934 ft | 381 kts | 249° |
| 2026-05-06 23:44 | 34.74096 | -2.07431 | 37938 ft | 381 kts | 248° |
| 2026-05-06 23:45 | 34.72483 | -2.13569 | 37938 ft | 382 kts | 248° |
| 2026-05-06 23:45 | 34.70864 | -2.19718 | 37942 ft | 382 kts | 248° |
| 2026-05-06 23:46 | 34.69240 | -2.25873 | 37943 ft | 383 kts | 248° |
| 2026-05-06 23:46 | 34.67613 | -2.32027 | 37937 ft | 383 kts | 248° |
| 2026-05-06 23:47 | 34.65980 | -2.38189 | 37931 ft | 383 kts | 248° |
| 2026-05-06 23:47 | 34.64344 | -2.44349 | 37929 ft | 383 kts | 248° |
| 2026-05-06 23:48 | 34.62703 | -2.50514 | 37930 ft | 384 kts | 248° |
| 2026-05-06 23:48 | 34.61056 | -2.56684 | 37931 ft | 384 kts | 248° |
| 2026-05-06 23:49 | 34.59400 | -2.62856 | 37929 ft | 384 kts | 248° |
| 2026-05-06 23:49 | 34.57711 | -2.69018 | 37923 ft | 385 kts | 248° |
| 2026-05-06 23:50 | 34.56018 | -2.75179 | 37924 ft | 385 kts | 248° |
| 2026-05-06 23:50 | 34.53508 | -2.84444 | 37921 ft | 386 kts | 248° |
| 2026-05-06 23:51 | 34.51847 | -2.90587 | 37921 ft | 386 kts | 248° |
| 2026-05-06 23:51 | 34.50167 | -2.96773 | 37921 ft | 386 kts | 248° |
| 2026-05-06 23:52 | 34.48482 | -3.02959 | 37919 ft | 387 kts | 248° |
| 2026-05-06 23:52 | 34.46791 | -3.09157 | 37919 ft | 387 kts | 248° |
| 2026-05-06 23:53 | 34.45095 | -3.15351 | 37921 ft | 388 kts | 248° |
| 2026-05-06 23:53 | 34.43394 | -3.21557 | 37923 ft | 388 kts | 248° |
| 2026-05-06 23:54 | 34.41687 | -3.27770 | 37926 ft | 389 kts | 248° |
| 2026-05-06 23:54 | 34.39973 | -3.33993 | 37927 ft | 390 kts | 248° |
| 2026-05-06 23:55 | 34.38255 | -3.40216 | 37928 ft | 390 kts | 248° |
| 2026-05-06 23:55 | 34.36532 | -3.46445 | 37929 ft | 390 kts | 248° |
| 2026-05-06 23:56 | 34.34825 | -3.52691 | 37931 ft | 391 kts | 248° |
| 2026-05-06 23:56 | 34.33136 | -3.58962 | 37935 ft | 392 kts | 248° |
| 2026-05-06 23:57 | 34.31447 | -3.65201 | 37932 ft | 393 kts | 248° |
| 2026-05-06 23:57 | 34.29727 | -3.71528 | 37931 ft | 394 kts | 248° |
| 2026-05-06 23:58 | 34.28024 | -3.77776 | 37937 ft | 395 kts | 248° |
| 2026-05-06 23:58 | 34.26305 | -3.84068 | 37940 ft | 395 kts | 248° |
| 2026-05-06 23:59 | 34.24575 | -3.90387 | 37942 ft | 396 kts | 248° |
| 2026-05-06 23:59 | 34.22839 | -3.96711 | 37939 ft | 396 kts | 248° |
| 2026-05-07 00:00 | 34.21100 | -4.03033 | 37943 ft | 397 kts | 248° |
| 2026-05-07 00:00 | 34.19651 | -4.08291 | 37939 ft | 397 kts | 248° |
| 2026-05-07 00:01 | 34.17604 | -4.15699 | 37947 ft | 398 kts | 248° |
| 2026-05-07 00:01 | 34.15814 | -4.22047 | 37949 ft | 400 kts | 247° |
| 2026-05-07 00:02 | 34.13980 | -4.28395 | 37956 ft | 401 kts | 247° |
| 2026-05-07 00:02 | 34.12146 | -4.34754 | 37951 ft | 402 kts | 247° |
| 2026-05-07 00:03 | 34.10320 | -4.41084 | 37952 ft | 404 kts | 247° |
| 2026-05-07 00:03 | 34.08453 | -4.47547 | 37956 ft | 404 kts | 247° |
| 2026-05-07 00:04 | 34.06596 | -4.53959 | 37957 ft | 405 kts | 247° |
| 2026-05-07 00:04 | 34.04733 | -4.60375 | 37959 ft | 407 kts | 247° |
| 2026-05-07 00:05 | 34.02855 | -4.66831 | 37969 ft | 408 kts | 247° |
| 2026-05-07 00:05 | 34.00973 | -4.73288 | 37964 ft | 409 kts | 247° |
| 2026-05-07 00:06 | 33.99084 | -4.79750 | 37966 ft | 410 kts | 247° |
| 2026-05-07 00:06 | 33.97194 | -4.86204 | 37973 ft | 410 kts | 247° |
| 2026-05-07 00:07 | 33.95283 | -4.92713 | 37957 ft | 411 kts | 247° |
| 2026-05-07 00:07 | 33.93395 | -4.99205 | 37952 ft | 412 kts | 249° |
| 2026-05-07 00:08 | 33.92076 | -5.05904 | 37958 ft | 417 kts | 256° |
| 2026-05-07 00:08 | 33.90317 | -5.12435 | 37894 ft | 410 kts | 244° |
| 2026-05-07 00:09 | 33.89184 | -5.15564 | 37638 ft | 405 kts | 244° |
| 2026-05-07 00:09 | 33.88070 | -5.18661 | 37361 ft | 404 kts | 244° |
| 2026-05-07 00:09 | 33.86949 | -5.21786 | 37111 ft | 405 kts | 244° |
| 2026-05-07 00:09 | 33.85832 | -5.24899 | 36867 ft | 406 kts | 244° |
| 2026-05-07 00:10 | 33.84711 | -5.28020 | 36601 ft | 406 kts | 244° |
| 2026-05-07 00:10 | 33.83588 | -5.31140 | 36341 ft | 407 kts | 244° |
| 2026-05-07 00:10 | 33.82462 | -5.34267 | 36095 ft | 408 kts | 244° |
| 2026-05-07 00:10 | 33.81334 | -5.37393 | 35848 ft | 409 kts | 244° |
| 2026-05-07 00:11 | 33.80199 | -5.40540 | 35602 ft | 410 kts | 244° |
| 2026-05-07 00:11 | 33.79061 | -5.43689 | 35358 ft | 412 kts | 244° |
| 2026-05-07 00:11 | 33.77916 | -5.46852 | 35123 ft | 413 kts | 244° |
| 2026-05-07 00:11 | 33.76771 | -5.50017 | 34652 ft | 413 kts | 244° |
| 2026-05-07 00:12 | 33.75622 | -5.53186 | 33806 ft | 417 kts | 245° |
| 2026-05-07 00:12 | 33.74469 | -5.56366 | 33135 ft | 413 kts | 245° |
| 2026-05-07 00:12 | 33.73333 | -5.59497 | 32774 ft | 405 kts | 245° |
| 2026-05-07 00:12 | 33.72207 | -5.62598 | 32577 ft | 407 kts | 245° |
| 2026-05-07 00:13 | 33.71063 | -5.65742 | 32376 ft | 410 kts | 245° |
| 2026-05-07 00:13 | 33.69920 | -5.68881 | 32166 ft | 411 kts | 245° |
| 2026-05-07 00:13 | 33.68775 | -5.72021 | 31962 ft | 410 kts | 245° |
| 2026-05-07 00:13 | 33.67638 | -5.75139 | 31685 ft | 408 kts | 245° |
| 2026-05-07 00:14 | 33.66495 | -5.78271 | 31127 ft | 407 kts | 245° |
| 2026-05-07 00:14 | 33.65372 | -5.81344 | 30451 ft | 407 kts | 245° |
| 2026-05-07 00:14 | 33.64218 | -5.84498 | 29706 ft | 407 kts | 245° |
| 2026-05-07 00:14 | 33.63100 | -5.87551 | 29069 ft | 403 kts | 245° |
| 2026-05-07 00:15 | 33.61976 | -5.90617 | 28400 ft | 399 kts | 245° |
| 2026-05-07 00:15 | 33.60865 | -5.93646 | 27733 ft | 397 kts | 245° |
| 2026-05-07 00:15 | 33.59747 | -5.96691 | 26837 ft | 400 kts | 245° |
| 2026-05-07 00:15 | 33.58625 | -5.99740 | 26134 ft | 399 kts | 245° |
| 2026-05-07 00:16 | 33.57513 | -6.02765 | 25520 ft | 395 kts | 245° |
| 2026-05-07 00:16 | 33.56406 | -6.05769 | 24870 ft | 393 kts | 245° |
| 2026-05-07 00:16 | 33.55659 | -6.07795 | 24436 ft | 391 kts | 245° |
| 2026-05-07 00:16 | 33.54563 | -6.10766 | 23830 ft | 389 kts | 246° |
| 2026-05-07 00:17 | 33.53471 | -6.13725 | 23176 ft | 386 kts | 246° |
| 2026-05-07 00:17 | 33.52391 | -6.16651 | 22523 ft | 383 kts | 246° |
| 2026-05-07 00:17 | 33.51319 | -6.19551 | 21877 ft | 379 kts | 246° |
| 2026-05-07 00:17 | 33.50257 | -6.22423 | 21263 ft | 375 kts | 245° |
| 2026-05-07 00:18 | 33.49215 | -6.25237 | 20657 ft | 372 kts | 245° |
| 2026-05-07 00:18 | 33.48153 | -6.28101 | 20035 ft | 370 kts | 245° |
| 2026-05-07 00:18 | 33.47115 | -6.30898 | 19440 ft | 367 kts | 245° |
| 2026-05-07 00:18 | 33.46083 | -6.33676 | 18889 ft | 363 kts | 245° |
| 2026-05-07 00:19 | 33.45074 | -6.36391 | 18328 ft | 360 kts | 245° |
| 2026-05-07 00:19 | 33.44059 | -6.39120 | 17691 ft | 358 kts | 245° |
| 2026-05-07 00:19 | 33.43052 | -6.41822 | 17101 ft | 354 kts | 245° |
| 2026-05-07 00:19 | 33.42053 | -6.44501 | 16483 ft | 351 kts | 245° |
| 2026-05-07 00:20 | 33.41063 | -6.47155 | 15881 ft | 348 kts | 245° |
| 2026-05-07 00:20 | 33.40085 | -6.49786 | 15298 ft | 345 kts | 246° |
| 2026-05-07 00:20 | 33.39105 | -6.52434 | 14699 ft | 342 kts | 245° |
| 2026-05-07 00:20 | 33.38140 | -6.54979 | 14076 ft | 341 kts | 245° |
| 2026-05-07 00:21 | 33.37160 | -6.57553 | 13476 ft | 338 kts | 245° |
| 2026-05-07 00:21 | 33.36205 | -6.60106 | 12779 ft | 336 kts | 246° |
| 2026-05-07 00:21 | 33.35355 | -6.62687 | 12254 ft | 331 kts | 249° |
| 2026-05-07 00:21 | 33.34575 | -6.65249 | 11728 ft | 326 kts | 250° |
| 2026-05-07 00:22 | 33.33825 | -6.67754 | 11510 ft | 314 kts | 250° |
| 2026-05-07 00:22 | 33.33105 | -6.70179 | 11251 ft | 303 kts | 250° |
| 2026-05-07 00:22 | 33.32411 | -6.72500 | 11053 ft | 292 kts | 249° |
| 2026-05-07 00:22 | 33.31707 | -6.74738 | 10904 ft | 281 kts | 249° |
| 2026-05-07 00:23 | 33.31028 | -6.76876 | 10700 ft | 271 kts | 249° |
| 2026-05-07 00:23 | 33.30364 | -6.78977 | 10338 ft | 270 kts | 249° |
| 2026-05-07 00:23 | 33.29706 | -6.81074 | 9990 ft | 268 kts | 249° |
| 2026-05-07 00:23 | 33.29057 | -6.83152 | 9583 ft | 267 kts | 249° |
| 2026-05-07 00:24 | 33.28411 | -6.85228 | 9181 ft | 266 kts | 249° |
| 2026-05-07 00:24 | 33.27767 | -6.87296 | 8892 ft | 266 kts | 249° |
| 2026-05-07 00:24 | 33.27125 | -6.89358 | 8635 ft | 265 kts | 249° |
| 2026-05-07 00:24 | 33.26483 | -6.91414 | 8384 ft | 263 kts | 249° |
| 2026-05-07 00:25 | 33.25841 | -6.93469 | 8123 ft | 263 kts | 249° |
| 2026-05-07 00:25 | 33.25201 | -6.95515 | 7880 ft | 262 kts | 249° |
| 2026-05-07 00:25 | 33.24563 | -6.97556 | 7631 ft | 261 kts | 249° |
| 2026-05-07 00:25 | 33.23927 | -6.99592 | 7347 ft | 262 kts | 249° |
| 2026-05-07 00:26 | 33.23293 | -7.01628 | 7075 ft | 260 kts | 249° |
| 2026-05-07 00:26 | 33.22663 | -7.03655 | 6669 ft | 261 kts | 249° |
| 2026-05-07 00:26 | 33.22028 | -7.05686 | 6323 ft | 259 kts | 249° |
| 2026-05-07 00:26 | 33.21385 | -7.07698 | 5951 ft | 259 kts | 248° |
| 2026-05-07 00:27 | 33.20734 | -7.09713 | 5627 ft | 261 kts | 249° |
| 2026-05-07 00:27 | 33.20083 | -7.11738 | 5356 ft | 261 kts | 249° |
| 2026-05-07 00:27 | 33.19431 | -7.13774 | 5066 ft | 263 kts | 250° |
| 2026-05-07 00:27 | 33.18775 | -7.15803 | 4908 ft | 262 kts | 249° |
| 2026-05-07 00:28 | 33.18117 | -7.17836 | 4717 ft | 263 kts | 250° |
| 2026-05-07 00:28 | 33.17501 | -7.19897 | 4476 ft | 262 kts | 252° |
| 2026-05-07 00:28 | 33.16902 | -7.21919 | 4301 ft | 255 kts | 251° |
| 2026-05-07 00:28 | 33.16283 | -7.23896 | 4200 ft | 253 kts | 251° |
| 2026-05-07 00:29 | 33.15648 | -7.25853 | 4091 ft | 253 kts | 250° |
| 2026-05-07 00:29 | 33.15097 | -7.27844 | 4051 ft | 253 kts | 259° |
| 2026-05-07 00:30 | 33.14204 | -7.34044 | 3931 ft | 254 kts | 262° |
| 2026-05-07 00:30 | 33.13900 | -7.36105 | 3989 ft | 251 kts | 262° |
| 2026-05-07 00:30 | 33.13590 | -7.38126 | 3984 ft | 240 kts | 261° |
| 2026-05-07 00:30 | 33.13273 | -7.40034 | 3954 ft | 228 kts | 260° |
| 2026-05-07 00:31 | 33.12942 | -7.41802 | 3979 ft | 210 kts | 259° |
| 2026-05-07 00:31 | 33.12642 | -7.43435 | 4000 ft | 190 kts | 260° |
| 2026-05-07 00:31 | 33.12382 | -7.44955 | 4000 ft | 187 kts | 261° |
| 2026-05-07 00:31 | 33.12153 | -7.46465 | 3989 ft | 188 kts | 262° |
| 2026-05-07 00:32 | 33.11941 | -7.48004 | 3994 ft | 188 kts | 263° |
| 2026-05-07 00:32 | 33.11949 | -7.49561 | 3951 ft | 186 kts | 290° |
| 2026-05-07 00:32 | 33.12703 | -7.50737 | 3973 ft | 183 kts | 327° |
| 2026-05-07 00:32 | 33.13858 | -7.51368 | 4016 ft | 180 kts | 341° |
| 2026-05-07 00:33 | 33.15041 | -7.51776 | 3999 ft | 173 kts | 344° |
| 2026-05-07 00:33 | 33.16176 | -7.52186 | 4005 ft | 169 kts | 341° |
| 2026-05-07 00:33 | 33.17300 | -7.52590 | 3999 ft | 168 kts | 344° |
| 2026-05-07 00:33 | 33.18428 | -7.52939 | 3990 ft | 167 kts | 345° |
| 2026-05-07 00:34 | 33.19554 | -7.53287 | 3863 ft | 167 kts | 345° |
| 2026-05-07 00:34 | 33.20670 | -7.53669 | 3664 ft | 167 kts | 341° |
| 2026-05-07 00:34 | 33.21765 | -7.54100 | 3424 ft | 164 kts | 345° |
| 2026-05-07 00:34 | 33.22869 | -7.54434 | 3197 ft | 164 kts | 345° |
| 2026-05-07 00:35 | 33.23916 | -7.54825 | 2979 ft | 151 kts | 344° |
| 2026-05-07 00:35 | 33.24882 | -7.55141 | 2789 ft | 139 kts | 346° |
| 2026-05-07 00:35 | 33.25804 | -7.55467 | 2586 ft | 136 kts | 343° |
| 2026-05-07 00:35 | 33.26697 | -7.55826 | 2413 ft | 135 kts | 343° |
| 2026-05-07 00:36 | 33.27610 | -7.56111 | 2234 ft | 135 kts | 348° |
| 2026-05-07 00:36 | 33.28526 | -7.56387 | 2036 ft | 136 kts | 344° |
| 2026-05-07 00:36 | 33.29431 | -7.56715 | 1869 ft | 136 kts | 346° |
| 2026-05-07 00:36 | 33.30341 | -7.57008 | 1689 ft | 135 kts | 345° |
| 2026-05-07 00:37 | 33.31245 | -7.57316 | 1490 ft | 135 kts | 343° |
| 2026-05-07 00:37 | 33.32141 | -7.57652 | 1304 ft | 135 kts | 342° |
| 2026-05-07 00:37 | 33.33043 | -7.57974 | 1098 ft | 135 kts | 346° |
| 2026-05-07 00:37 | 33.33955 | -7.58239 | 926 ft | 134 kts | 345° |
| 2026-05-07 00:38 | 33.34851 | -7.58572 | 726 ft | 135 kts | 343° |
| 2026-05-07 00:38 | 33.35691 | -7.58849 | 659 ft | 107 kts | 344° |
| 2026-05-07 00:38 | 33.36166 | -7.59012 | 659 ft | 40 kts | 344° |
| 2026-05-07 00:38 | 33.36404 | -7.59094 | 657 ft | 32 kts | 344° |
| 2026-05-07 00:39 | 33.36601 | -7.59162 | 659 ft | 27 kts | 344° |
| 2026-05-07 00:39 | 33.36772 | -7.59219 | 655 ft | 24 kts | 344° |
| 2026-05-07 00:39 | 33.36923 | -7.59270 | 657 ft | 21 kts | 344° |
| 2026-05-07 00:39 | 33.37060 | -7.59318 | 657 ft | 21 kts | 343° |
| 2026-05-07 00:40 | 33.37201 | -7.59367 | 658 ft | 22 kts | 344° |
| 2026-05-07 00:40 | 33.37358 | -7.59420 | 659 ft | 25 kts | 344° |
| 2026-05-07 00:40 | 33.37517 | -7.59474 | 659 ft | 23 kts | 344° |
| 2026-05-07 00:40 | 33.37631 | -7.59514 | 658 ft | 0 kts | 343° |
| 2026-05-07 00:41 | 33.37660 | -7.59525 | 657 ft | 8 kts | 345° |
| 2026-05-07 00:41 | 33.37699 | -7.59505 | 656 ft | 8 kts | 50° |
| 2026-05-07 00:41 | 33.37735 | -7.59423 | 656 ft | 14 kts | 70° |
| 2026-05-07 00:41 | 33.37770 | -7.59284 | 655 ft | 20 kts | 75° |
| 2026-05-07 00:42 | 33.37813 | -7.59106 | 651 ft | 23 kts | 73° |
| 2026-05-07 00:42 | 33.37856 | -7.58934 | 657 ft | 21 kts | 73° |
| 2026-05-07 00:42 | 33.37888 | -7.58801 | 658 ft | 0 kts | 73° |
| 2026-05-07 00:42 | 33.37895 | -7.58773 | 658 ft | 7 kts | 73° |
| 2026-05-07 00:43 | 33.37911 | -7.58699 | 658 ft | 11 kts | 86° |
| 2026-05-07 00:43 | 33.37878 | -7.58604 | 658 ft | 15 kts | 127° |
| 2026-05-07 00:43 | 33.37824 | -7.58519 | 658 ft | 10 kts | 130° |
| 2026-05-07 00:43 | 33.37752 | -7.58470 | 658 ft | 14 kts | 166° |
| 2026-05-07 00:44 | 33.37708 | -7.58456 | 658 ft | 6 kts | 166° |
| 2026-05-07 00:44 | 33.37664 | -7.58438 | 658 ft | 4 kts | 124° |
| 2026-05-07 00:44 | 33.37650 | -7.58407 | 658 ft | 1 kts | 117° |
| 2026-05-07 00:44 | 33.37639 | -7.58384 | 658 ft | 0 kts | 120° |
| 2026-05-07 00:45 | 33.37633 | -7.58370 | 658 ft | 1 kts | 121° |
| 2026-05-07 00:45 | 33.37627 | -7.58359 | 658 ft | 0 kts | 121° |
| 2026-05-07 00:45 | 33.37623 | -7.58350 | 658 ft | 3 kts | 121° |
| 2026-05-07 00:45 | 33.37620 | -7.58345 | 658 ft | 0 kts | 121° |